<?xml version="1.0" encoding="UTF-8" standalone="no" ?>
<gpx xmlns="http://www.topografix.com/GPX/1/1" xmlns:xsi="http://www.w3.org/2001/XMLSchema-instance" xsi:schemaLocation="http://www.topografix.com/GPX/1/1 http://www.topografix.com/GPX/1/1/gpx.xsd" version="1.1" creator="VisuGPX - https://www.visugpx.com">
  <metadata>
    <name>Saverne - Tour du Brotsch</name>
    <desc><![CDATA[Boucle de 15 Km au départ de Saverne.
Tour du Brotsch
Chateau du Haut Barr]]></desc>
  </metadata>
  <trk>
    <name><![CDATA[ADi2010/08/09_17:30]]></name>
    <trkseg>
      <trkpt lat="48.73352" lon="7.34774">
        <ele>282.649902</ele>
        <time>2010-08-09T15:40:02Z</time>
      </trkpt>
      <trkpt lat="48.7334" lon="7.3475">
        <ele>282.118652</ele>
        <time>2010-08-09T15:40:07Z</time>
      </trkpt>
      <trkpt lat="48.73331" lon="7.34734">
        <ele>282.478027</ele>
        <time>2010-08-09T15:40:12Z</time>
      </trkpt>
      <trkpt lat="48.73323" lon="7.34718">
        <ele>280.751465</ele>
        <time>2010-08-09T15:40:18Z</time>
      </trkpt>
      <trkpt lat="48.73313" lon="7.34699">
        <ele>280.493652</ele>
        <time>2010-08-09T15:40:25Z</time>
      </trkpt>
      <trkpt lat="48.73304" lon="7.34683">
        <ele>280.313965</ele>
        <time>2010-08-09T15:40:30Z</time>
      </trkpt>
      <trkpt lat="48.73295" lon="7.34667">
        <ele>279.915527</ele>
        <time>2010-08-09T15:40:35Z</time>
      </trkpt>
      <trkpt lat="48.73285" lon="7.34647">
        <ele>278.821777</ele>
        <time>2010-08-09T15:40:41Z</time>
      </trkpt>
      <trkpt lat="48.73274" lon="7.34629">
        <ele>279.446777</ele>
        <time>2010-08-09T15:40:47Z</time>
      </trkpt>
      <trkpt lat="48.73264" lon="7.34611">
        <ele>280.415527</ele>
        <time>2010-08-09T15:40:53Z</time>
      </trkpt>
      <trkpt lat="48.73254" lon="7.34594">
        <ele>279.751465</ele>
        <time>2010-08-09T15:40:59Z</time>
      </trkpt>
      <trkpt lat="48.73245" lon="7.34575">
        <ele>279.01709</ele>
        <time>2010-08-09T15:41:05Z</time>
      </trkpt>
      <trkpt lat="48.73236" lon="7.34559">
        <ele>281.712402</ele>
        <time>2010-08-09T15:41:10Z</time>
      </trkpt>
      <trkpt lat="48.73225" lon="7.34543">
        <ele>283.181152</ele>
        <time>2010-08-09T15:41:15Z</time>
      </trkpt>
      <trkpt lat="48.73216" lon="7.34528">
        <ele>284.67334</ele>
        <time>2010-08-09T15:41:20Z</time>
      </trkpt>
      <trkpt lat="48.73206" lon="7.34509">
        <ele>284.01709</ele>
        <time>2010-08-09T15:41:26Z</time>
      </trkpt>
      <trkpt lat="48.73197" lon="7.34492">
        <ele>284.774902</ele>
        <time>2010-08-09T15:41:31Z</time>
      </trkpt>
      <trkpt lat="48.73187" lon="7.34477">
        <ele>287.524902</ele>
        <time>2010-08-09T15:41:36Z</time>
      </trkpt>
      <trkpt lat="48.73175" lon="7.34461">
        <ele>290.157715</ele>
        <time>2010-08-09T15:41:41Z</time>
      </trkpt>
      <trkpt lat="48.73166" lon="7.34446">
        <ele>289.978027</ele>
        <time>2010-08-09T15:41:46Z</time>
      </trkpt>
      <trkpt lat="48.73154" lon="7.34431">
        <ele>292.306152</ele>
        <time>2010-08-09T15:41:51Z</time>
      </trkpt>
      <trkpt lat="48.73143" lon="7.34417">
        <ele>293.509277</ele>
        <time>2010-08-09T15:41:56Z</time>
      </trkpt>
      <trkpt lat="48.7313" lon="7.34402">
        <ele>294.92334</ele>
        <time>2010-08-09T15:42:01Z</time>
      </trkpt>
      <trkpt lat="48.73119" lon="7.34389">
        <ele>297.321777</ele>
        <time>2010-08-09T15:42:05Z</time>
      </trkpt>
      <trkpt lat="48.73108" lon="7.34373">
        <ele>300.165527</ele>
        <time>2010-08-09T15:42:11Z</time>
      </trkpt>
      <trkpt lat="48.73097" lon="7.3436">
        <ele>300.32959</ele>
        <time>2010-08-09T15:42:16Z</time>
      </trkpt>
      <trkpt lat="48.73085" lon="7.34343">
        <ele>300.134277</ele>
        <time>2010-08-09T15:42:22Z</time>
      </trkpt>
      <trkpt lat="48.73073" lon="7.34329">
        <ele>299.501465</ele>
        <time>2010-08-09T15:42:27Z</time>
      </trkpt>
      <trkpt lat="48.73061" lon="7.34313">
        <ele>298.345215</ele>
        <time>2010-08-09T15:42:33Z</time>
      </trkpt>
      <trkpt lat="48.73048" lon="7.34298">
        <ele>296.313965</ele>
        <time>2010-08-09T15:42:38Z</time>
      </trkpt>
      <trkpt lat="48.73037" lon="7.34281">
        <ele>295.790527</ele>
        <time>2010-08-09T15:42:43Z</time>
      </trkpt>
      <trkpt lat="48.7303" lon="7.34263">
        <ele>294.876465</ele>
        <time>2010-08-09T15:42:47Z</time>
      </trkpt>
      <trkpt lat="48.73019" lon="7.34248">
        <ele>292.759277</ele>
        <time>2010-08-09T15:42:52Z</time>
      </trkpt>
      <trkpt lat="48.73008" lon="7.3423">
        <ele>291.118652</ele>
        <time>2010-08-09T15:42:56Z</time>
      </trkpt>
      <trkpt lat="48.72999" lon="7.34211">
        <ele>289.509277</ele>
        <time>2010-08-09T15:43:00Z</time>
      </trkpt>
      <trkpt lat="48.72988" lon="7.34195">
        <ele>288.149902</ele>
        <time>2010-08-09T15:43:04Z</time>
      </trkpt>
      <trkpt lat="48.72973" lon="7.34188">
        <ele>287.001465</ele>
        <time>2010-08-09T15:43:08Z</time>
      </trkpt>
      <trkpt lat="48.7296" lon="7.34177">
        <ele>288.95459</ele>
        <time>2010-08-09T15:43:13Z</time>
      </trkpt>
      <trkpt lat="48.7295" lon="7.34164">
        <ele>289.321777</ele>
        <time>2010-08-09T15:43:18Z</time>
      </trkpt>
      <trkpt lat="48.72938" lon="7.34149">
        <ele>289.087402</ele>
        <time>2010-08-09T15:43:23Z</time>
      </trkpt>
      <trkpt lat="48.72929" lon="7.34133">
        <ele>288.70459</ele>
        <time>2010-08-09T15:43:28Z</time>
      </trkpt>
      <trkpt lat="48.72919" lon="7.34118">
        <ele>289.087402</ele>
        <time>2010-08-09T15:43:33Z</time>
      </trkpt>
      <trkpt lat="48.72908" lon="7.341">
        <ele>290.17334</ele>
        <time>2010-08-09T15:43:38Z</time>
      </trkpt>
      <trkpt lat="48.72897" lon="7.34085">
        <ele>290.618652</ele>
        <time>2010-08-09T15:43:45Z</time>
      </trkpt>
      <trkpt lat="48.72891" lon="7.34064">
        <ele>295.407715</ele>
        <time>2010-08-09T15:44:02Z</time>
      </trkpt>
      <trkpt lat="48.72886" lon="7.34043">
        <ele>295.853027</ele>
        <time>2010-08-09T15:44:06Z</time>
      </trkpt>
      <trkpt lat="48.72879" lon="7.34023">
        <ele>295.720215</ele>
        <time>2010-08-09T15:44:11Z</time>
      </trkpt>
      <trkpt lat="48.72874" lon="7.34001">
        <ele>295.712402</ele>
        <time>2010-08-09T15:44:15Z</time>
      </trkpt>
      <trkpt lat="48.72864" lon="7.3398">
        <ele>296.54834</ele>
        <time>2010-08-09T15:44:20Z</time>
      </trkpt>
      <trkpt lat="48.72857" lon="7.33957">
        <ele>295.931152</ele>
        <time>2010-08-09T15:44:25Z</time>
      </trkpt>
      <trkpt lat="48.7285" lon="7.33936">
        <ele>294.493652</ele>
        <time>2010-08-09T15:44:29Z</time>
      </trkpt>
      <trkpt lat="48.72845" lon="7.33916">
        <ele>293.946777</ele>
        <time>2010-08-09T15:44:33Z</time>
      </trkpt>
      <trkpt lat="48.72836" lon="7.33899">
        <ele>293.76709</ele>
        <time>2010-08-09T15:44:37Z</time>
      </trkpt>
      <trkpt lat="48.7283" lon="7.33878">
        <ele>296.290527</ele>
        <time>2010-08-09T15:44:41Z</time>
      </trkpt>
      <trkpt lat="48.72825" lon="7.33856">
        <ele>296.51709</ele>
        <time>2010-08-09T15:44:45Z</time>
      </trkpt>
      <trkpt lat="48.72818" lon="7.33834">
        <ele>298.540527</ele>
        <time>2010-08-09T15:44:49Z</time>
      </trkpt>
      <trkpt lat="48.72812" lon="7.33811">
        <ele>303.056152</ele>
        <time>2010-08-09T15:44:53Z</time>
      </trkpt>
      <trkpt lat="48.72803" lon="7.33791">
        <ele>304.45459</ele>
        <time>2010-08-09T15:44:57Z</time>
      </trkpt>
      <trkpt lat="48.72795" lon="7.33773">
        <ele>306.228027</ele>
        <time>2010-08-09T15:45:01Z</time>
      </trkpt>
      <trkpt lat="48.72785" lon="7.33756">
        <ele>306.321777</ele>
        <time>2010-08-09T15:45:06Z</time>
      </trkpt>
      <trkpt lat="48.72777" lon="7.33735">
        <ele>305.67334</ele>
        <time>2010-08-09T15:45:11Z</time>
      </trkpt>
      <trkpt lat="48.72768" lon="7.33719">
        <ele>304.688965</ele>
        <time>2010-08-09T15:45:15Z</time>
      </trkpt>
      <trkpt lat="48.72758" lon="7.33704">
        <ele>308.39209</ele>
        <time>2010-08-09T15:45:18Z</time>
      </trkpt>
      <trkpt lat="48.72749" lon="7.33687">
        <ele>308.720215</ele>
        <time>2010-08-09T15:45:22Z</time>
      </trkpt>
      <trkpt lat="48.72738" lon="7.33671">
        <ele>308.14209</ele>
        <time>2010-08-09T15:45:26Z</time>
      </trkpt>
      <trkpt lat="48.72726" lon="7.33656">
        <ele>308.313965</ele>
        <time>2010-08-09T15:45:30Z</time>
      </trkpt>
      <trkpt lat="48.72713" lon="7.3364">
        <ele>308.134277</ele>
        <time>2010-08-09T15:45:34Z</time>
      </trkpt>
      <trkpt lat="48.72704" lon="7.33625">
        <ele>305.649902</ele>
        <time>2010-08-09T15:45:37Z</time>
      </trkpt>
      <trkpt lat="48.72692" lon="7.33609">
        <ele>305.649902</ele>
        <time>2010-08-09T15:45:41Z</time>
      </trkpt>
      <trkpt lat="48.72678" lon="7.33596">
        <ele>306.665527</ele>
        <time>2010-08-09T15:45:45Z</time>
      </trkpt>
      <trkpt lat="48.72665" lon="7.33579">
        <ele>306.712402</ele>
        <time>2010-08-09T15:45:49Z</time>
      </trkpt>
      <trkpt lat="48.72652" lon="7.33565">
        <ele>305.220215</ele>
        <time>2010-08-09T15:45:53Z</time>
      </trkpt>
      <trkpt lat="48.72641" lon="7.33552">
        <ele>304.07959</ele>
        <time>2010-08-09T15:45:57Z</time>
      </trkpt>
      <trkpt lat="48.72627" lon="7.33539">
        <ele>307.345215</ele>
        <time>2010-08-09T15:46:01Z</time>
      </trkpt>
      <trkpt lat="48.72614" lon="7.33529">
        <ele>310.306152</ele>
        <time>2010-08-09T15:46:06Z</time>
      </trkpt>
      <trkpt lat="48.72601" lon="7.33515">
        <ele>310.040527</ele>
        <time>2010-08-09T15:46:10Z</time>
      </trkpt>
      <trkpt lat="48.72588" lon="7.33504">
        <ele>310.45459</ele>
        <time>2010-08-09T15:46:14Z</time>
      </trkpt>
      <trkpt lat="48.72576" lon="7.33494">
        <ele>312.274902</ele>
        <time>2010-08-09T15:46:17Z</time>
      </trkpt>
      <trkpt lat="48.72561" lon="7.33484">
        <ele>313.92334</ele>
        <time>2010-08-09T15:46:21Z</time>
      </trkpt>
      <trkpt lat="48.72547" lon="7.33473">
        <ele>313.259277</ele>
        <time>2010-08-09T15:46:25Z</time>
      </trkpt>
      <trkpt lat="48.72532" lon="7.3346">
        <ele>312.071777</ele>
        <time>2010-08-09T15:46:29Z</time>
      </trkpt>
      <trkpt lat="48.72518" lon="7.33447">
        <ele>314.70459</ele>
        <time>2010-08-09T15:46:33Z</time>
      </trkpt>
      <trkpt lat="48.72503" lon="7.33439">
        <ele>315.51709</ele>
        <time>2010-08-09T15:46:37Z</time>
      </trkpt>
      <trkpt lat="48.72488" lon="7.33428">
        <ele>315.970215</ele>
        <time>2010-08-09T15:46:41Z</time>
      </trkpt>
      <trkpt lat="48.72475" lon="7.33418">
        <ele>316.970215</ele>
        <time>2010-08-09T15:46:45Z</time>
      </trkpt>
      <trkpt lat="48.72461" lon="7.33409">
        <ele>316.67334</ele>
        <time>2010-08-09T15:46:50Z</time>
      </trkpt>
      <trkpt lat="48.72449" lon="7.33397">
        <ele>316.649902</ele>
        <time>2010-08-09T15:46:55Z</time>
      </trkpt>
      <trkpt lat="48.72438" lon="7.33378">
        <ele>316.524902</ele>
        <time>2010-08-09T15:47:00Z</time>
      </trkpt>
      <trkpt lat="48.72429" lon="7.33362">
        <ele>315.681152</ele>
        <time>2010-08-09T15:47:05Z</time>
      </trkpt>
      <trkpt lat="48.72414" lon="7.33348">
        <ele>315.64209</ele>
        <time>2010-08-09T15:47:10Z</time>
      </trkpt>
      <trkpt lat="48.72402" lon="7.33339">
        <ele>315.82959</ele>
        <time>2010-08-09T15:47:14Z</time>
      </trkpt>
      <trkpt lat="48.72391" lon="7.33323">
        <ele>315.938965</ele>
        <time>2010-08-09T15:47:19Z</time>
      </trkpt>
      <trkpt lat="48.7238" lon="7.33308">
        <ele>315.665527</ele>
        <time>2010-08-09T15:47:25Z</time>
      </trkpt>
      <trkpt lat="48.72366" lon="7.33307">
        <ele>314.98584</ele>
        <time>2010-08-09T15:47:29Z</time>
      </trkpt>
      <trkpt lat="48.72352" lon="7.33294">
        <ele>313.165527</ele>
        <time>2010-08-09T15:47:33Z</time>
      </trkpt>
      <trkpt lat="48.72341" lon="7.33281">
        <ele>314.36084</ele>
        <time>2010-08-09T15:47:38Z</time>
      </trkpt>
      <trkpt lat="48.72328" lon="7.3327">
        <ele>313.587402</ele>
        <time>2010-08-09T15:47:43Z</time>
      </trkpt>
      <trkpt lat="48.72316" lon="7.33257">
        <ele>313.306152</ele>
        <time>2010-08-09T15:47:48Z</time>
      </trkpt>
      <trkpt lat="48.72301" lon="7.33256">
        <ele>311.79834</ele>
        <time>2010-08-09T15:47:52Z</time>
      </trkpt>
      <trkpt lat="48.72285" lon="7.33255">
        <ele>310.282715</ele>
        <time>2010-08-09T15:47:56Z</time>
      </trkpt>
      <trkpt lat="48.7227" lon="7.3325">
        <ele>309.243652</ele>
        <time>2010-08-09T15:48:02Z</time>
      </trkpt>
      <trkpt lat="48.72257" lon="7.33238">
        <ele>306.103027</ele>
        <time>2010-08-09T15:48:11Z</time>
      </trkpt>
      <trkpt lat="48.7224" lon="7.33237">
        <ele>303.618652</ele>
        <time>2010-08-09T15:48:17Z</time>
      </trkpt>
      <trkpt lat="48.72222" lon="7.33234">
        <ele>301.876465</ele>
        <time>2010-08-09T15:48:22Z</time>
      </trkpt>
      <trkpt lat="48.72211" lon="7.33221">
        <ele>299.603027</ele>
        <time>2010-08-09T15:48:27Z</time>
      </trkpt>
      <trkpt lat="48.72203" lon="7.33204">
        <ele>296.946777</ele>
        <time>2010-08-09T15:48:33Z</time>
      </trkpt>
      <trkpt lat="48.72195" lon="7.33183">
        <ele>294.821777</ele>
        <time>2010-08-09T15:48:38Z</time>
      </trkpt>
      <trkpt lat="48.72191" lon="7.33163">
        <ele>292.970215</ele>
        <time>2010-08-09T15:48:41Z</time>
      </trkpt>
      <trkpt lat="48.72175" lon="7.33153">
        <ele>291.126465</ele>
        <time>2010-08-09T15:48:45Z</time>
      </trkpt>
      <trkpt lat="48.72166" lon="7.33137">
        <ele>289.82959</ele>
        <time>2010-08-09T15:48:50Z</time>
      </trkpt>
      <trkpt lat="48.7216" lon="7.33118">
        <ele>288.306152</ele>
        <time>2010-08-09T15:48:55Z</time>
      </trkpt>
      <trkpt lat="48.72154" lon="7.33096">
        <ele>291.071777</ele>
        <time>2010-08-09T15:49:00Z</time>
      </trkpt>
      <trkpt lat="48.72151" lon="7.33075">
        <ele>290.470215</ele>
        <time>2010-08-09T15:49:06Z</time>
      </trkpt>
      <trkpt lat="48.72141" lon="7.33056">
        <ele>300.993652</ele>
        <time>2010-08-09T15:49:11Z</time>
      </trkpt>
      <trkpt lat="48.72131" lon="7.33046">
        <ele>309.009277</ele>
        <time>2010-08-09T15:49:13Z</time>
      </trkpt>
      <trkpt lat="48.72123" lon="7.33033">
        <ele>316.64209</ele>
        <time>2010-08-09T15:49:16Z</time>
      </trkpt>
      <trkpt lat="48.72122" lon="7.33015">
        <ele>323.759277</ele>
        <time>2010-08-09T15:49:20Z</time>
      </trkpt>
      <trkpt lat="48.72121" lon="7.32993">
        <ele>329.282715</ele>
        <time>2010-08-09T15:49:25Z</time>
      </trkpt>
      <trkpt lat="48.72121" lon="7.32973">
        <ele>333.938965</ele>
        <time>2010-08-09T15:49:29Z</time>
      </trkpt>
      <trkpt lat="48.72122" lon="7.32952">
        <ele>335.720215</ele>
        <time>2010-08-09T15:49:33Z</time>
      </trkpt>
      <trkpt lat="48.72125" lon="7.32931">
        <ele>336.42334</ele>
        <time>2010-08-09T15:49:37Z</time>
      </trkpt>
      <trkpt lat="48.72128" lon="7.32906">
        <ele>338.399902</ele>
        <time>2010-08-09T15:49:42Z</time>
      </trkpt>
      <trkpt lat="48.72129" lon="7.32883">
        <ele>340.126465</ele>
        <time>2010-08-09T15:49:46Z</time>
      </trkpt>
      <trkpt lat="48.72126" lon="7.32862">
        <ele>341.228027</ele>
        <time>2010-08-09T15:49:50Z</time>
      </trkpt>
      <trkpt lat="48.72125" lon="7.32838">
        <ele>341.876465</ele>
        <time>2010-08-09T15:49:54Z</time>
      </trkpt>
      <trkpt lat="48.7212" lon="7.32816">
        <ele>340.259277</ele>
        <time>2010-08-09T15:49:58Z</time>
      </trkpt>
      <trkpt lat="48.72112" lon="7.32794">
        <ele>341.587402</ele>
        <time>2010-08-09T15:50:02Z</time>
      </trkpt>
      <trkpt lat="48.72107" lon="7.32772">
        <ele>340.657715</ele>
        <time>2010-08-09T15:50:06Z</time>
      </trkpt>
      <trkpt lat="48.72099" lon="7.32754">
        <ele>341.876465</ele>
        <time>2010-08-09T15:50:10Z</time>
      </trkpt>
      <trkpt lat="48.72086" lon="7.32744">
        <ele>341.618652</ele>
        <time>2010-08-09T15:50:14Z</time>
      </trkpt>
      <trkpt lat="48.72073" lon="7.32735">
        <ele>343.290527</ele>
        <time>2010-08-09T15:50:18Z</time>
      </trkpt>
      <trkpt lat="48.7206" lon="7.32722">
        <ele>342.759277</ele>
        <time>2010-08-09T15:50:23Z</time>
      </trkpt>
      <trkpt lat="48.72046" lon="7.32715">
        <ele>341.42334</ele>
        <time>2010-08-09T15:50:28Z</time>
      </trkpt>
      <trkpt lat="48.72032" lon="7.32711">
        <ele>339.978027</ele>
        <time>2010-08-09T15:50:32Z</time>
      </trkpt>
      <trkpt lat="48.72018" lon="7.32711">
        <ele>339.728027</ele>
        <time>2010-08-09T15:50:36Z</time>
      </trkpt>
      <trkpt lat="48.72002" lon="7.32712">
        <ele>338.907715</ele>
        <time>2010-08-09T15:50:41Z</time>
      </trkpt>
      <trkpt lat="48.71989" lon="7.32711">
        <ele>338.571777</ele>
        <time>2010-08-09T15:50:45Z</time>
      </trkpt>
      <trkpt lat="48.71975" lon="7.3271">
        <ele>338.806152</ele>
        <time>2010-08-09T15:50:49Z</time>
      </trkpt>
      <trkpt lat="48.71959" lon="7.32711">
        <ele>339.024902</ele>
        <time>2010-08-09T15:50:54Z</time>
      </trkpt>
      <trkpt lat="48.71944" lon="7.32715">
        <ele>339.118652</ele>
        <time>2010-08-09T15:50:59Z</time>
      </trkpt>
      <trkpt lat="48.7193" lon="7.32718">
        <ele>338.39209</ele>
        <time>2010-08-09T15:51:04Z</time>
      </trkpt>
      <trkpt lat="48.71919" lon="7.32731">
        <ele>336.384277</ele>
        <time>2010-08-09T15:51:08Z</time>
      </trkpt>
      <trkpt lat="48.71903" lon="7.32741">
        <ele>334.64209</ele>
        <time>2010-08-09T15:51:15Z</time>
      </trkpt>
      <trkpt lat="48.71892" lon="7.32753">
        <ele>333.134277</ele>
        <time>2010-08-09T15:51:20Z</time>
      </trkpt>
      <trkpt lat="48.71878" lon="7.32762">
        <ele>331.493652</ele>
        <time>2010-08-09T15:51:26Z</time>
      </trkpt>
      <trkpt lat="48.71866" lon="7.32779">
        <ele>329.415527</ele>
        <time>2010-08-09T15:51:32Z</time>
      </trkpt>
      <trkpt lat="48.71854" lon="7.32795">
        <ele>327.228027</ele>
        <time>2010-08-09T15:51:37Z</time>
      </trkpt>
      <trkpt lat="48.71841" lon="7.32804">
        <ele>324.70459</ele>
        <time>2010-08-09T15:51:44Z</time>
      </trkpt>
      <trkpt lat="48.71827" lon="7.328">
        <ele>324.743652</ele>
        <time>2010-08-09T15:51:46Z</time>
      </trkpt>
      <trkpt lat="48.71813" lon="7.32803">
        <ele>323.64209</ele>
        <time>2010-08-09T15:51:50Z</time>
      </trkpt>
      <trkpt lat="48.71797" lon="7.32805">
        <ele>322.626465</ele>
        <time>2010-08-09T15:51:54Z</time>
      </trkpt>
      <trkpt lat="48.71783" lon="7.32806">
        <ele>321.04834</ele>
        <time>2010-08-09T15:51:58Z</time>
      </trkpt>
      <trkpt lat="48.71769" lon="7.32805">
        <ele>319.48584</ele>
        <time>2010-08-09T15:52:02Z</time>
      </trkpt>
      <trkpt lat="48.71753" lon="7.32806">
        <ele>317.774902</ele>
        <time>2010-08-09T15:52:07Z</time>
      </trkpt>
      <trkpt lat="48.71737" lon="7.32802">
        <ele>316.313965</ele>
        <time>2010-08-09T15:52:12Z</time>
      </trkpt>
      <trkpt lat="48.71724" lon="7.32798">
        <ele>315.274902</ele>
        <time>2010-08-09T15:52:16Z</time>
      </trkpt>
      <trkpt lat="48.71709" lon="7.32805">
        <ele>313.20459</ele>
        <time>2010-08-09T15:52:21Z</time>
      </trkpt>
      <trkpt lat="48.71697" lon="7.32814">
        <ele>311.993652</ele>
        <time>2010-08-09T15:52:25Z</time>
      </trkpt>
      <trkpt lat="48.71683" lon="7.32827">
        <ele>310.321777</ele>
        <time>2010-08-09T15:52:29Z</time>
      </trkpt>
      <trkpt lat="48.71676" lon="7.32846">
        <ele>309.32959</ele>
        <time>2010-08-09T15:52:33Z</time>
      </trkpt>
      <trkpt lat="48.71673" lon="7.3287">
        <ele>307.751465</ele>
        <time>2010-08-09T15:52:37Z</time>
      </trkpt>
      <trkpt lat="48.71663" lon="7.3289">
        <ele>305.92334</ele>
        <time>2010-08-09T15:52:42Z</time>
      </trkpt>
      <trkpt lat="48.71649" lon="7.32894">
        <ele>304.149902</ele>
        <time>2010-08-09T15:52:47Z</time>
      </trkpt>
      <trkpt lat="48.71634" lon="7.32887">
        <ele>301.782715</ele>
        <time>2010-08-09T15:52:53Z</time>
      </trkpt>
      <trkpt lat="48.7162" lon="7.32885">
        <ele>299.790527</ele>
        <time>2010-08-09T15:52:57Z</time>
      </trkpt>
      <trkpt lat="48.71607" lon="7.32883">
        <ele>298.540527</ele>
        <time>2010-08-09T15:53:00Z</time>
      </trkpt>
      <trkpt lat="48.71592" lon="7.3288">
        <ele>297.063965</ele>
        <time>2010-08-09T15:53:04Z</time>
      </trkpt>
      <trkpt lat="48.71578" lon="7.32876">
        <ele>295.274902</ele>
        <time>2010-08-09T15:53:08Z</time>
      </trkpt>
      <trkpt lat="48.71565" lon="7.32874">
        <ele>293.626465</ele>
        <time>2010-08-09T15:53:12Z</time>
      </trkpt>
      <trkpt lat="48.71549" lon="7.32868">
        <ele>291.790527</ele>
        <time>2010-08-09T15:53:17Z</time>
      </trkpt>
      <trkpt lat="48.71534" lon="7.32864">
        <ele>290.118652</ele>
        <time>2010-08-09T15:53:22Z</time>
      </trkpt>
      <trkpt lat="48.71518" lon="7.32861">
        <ele>288.243652</ele>
        <time>2010-08-09T15:53:27Z</time>
      </trkpt>
      <trkpt lat="48.71503" lon="7.32859">
        <ele>286.462402</ele>
        <time>2010-08-09T15:53:32Z</time>
      </trkpt>
      <trkpt lat="48.71487" lon="7.32854">
        <ele>284.813965</ele>
        <time>2010-08-09T15:53:37Z</time>
      </trkpt>
      <trkpt lat="48.71474" lon="7.32858">
        <ele>283.290527</ele>
        <time>2010-08-09T15:53:41Z</time>
      </trkpt>
      <trkpt lat="48.71458" lon="7.3286">
        <ele>281.493652</ele>
        <time>2010-08-09T15:53:46Z</time>
      </trkpt>
      <trkpt lat="48.71443" lon="7.32869">
        <ele>279.813965</ele>
        <time>2010-08-09T15:53:51Z</time>
      </trkpt>
      <trkpt lat="48.71428" lon="7.32875">
        <ele>277.978027</ele>
        <time>2010-08-09T15:53:56Z</time>
      </trkpt>
      <trkpt lat="48.71414" lon="7.32875">
        <ele>276.103027</ele>
        <time>2010-08-09T15:54:01Z</time>
      </trkpt>
      <trkpt lat="48.71398" lon="7.32877">
        <ele>274.86084</ele>
        <time>2010-08-09T15:54:06Z</time>
      </trkpt>
      <trkpt lat="48.71384" lon="7.32877">
        <ele>273.86084</ele>
        <time>2010-08-09T15:54:10Z</time>
      </trkpt>
      <trkpt lat="48.7137" lon="7.32878">
        <ele>272.962402</ele>
        <time>2010-08-09T15:54:14Z</time>
      </trkpt>
      <trkpt lat="48.71356" lon="7.32877">
        <ele>271.743652</ele>
        <time>2010-08-09T15:54:18Z</time>
      </trkpt>
      <trkpt lat="48.71339" lon="7.32879">
        <ele>270.36084</ele>
        <time>2010-08-09T15:54:23Z</time>
      </trkpt>
      <trkpt lat="48.71325" lon="7.3288">
        <ele>268.978027</ele>
        <time>2010-08-09T15:54:27Z</time>
      </trkpt>
      <trkpt lat="48.71311" lon="7.32878">
        <ele>268.11084</ele>
        <time>2010-08-09T15:54:31Z</time>
      </trkpt>
      <trkpt lat="48.71298" lon="7.32872">
        <ele>266.431152</ele>
        <time>2010-08-09T15:54:37Z</time>
      </trkpt>
      <trkpt lat="48.71285" lon="7.32861">
        <ele>264.806152</ele>
        <time>2010-08-09T15:54:43Z</time>
      </trkpt>
      <trkpt lat="48.71277" lon="7.3284">
        <ele>263.446777</ele>
        <time>2010-08-09T15:54:48Z</time>
      </trkpt>
      <trkpt lat="48.71268" lon="7.32819">
        <ele>262.61084</ele>
        <time>2010-08-09T15:54:53Z</time>
      </trkpt>
      <trkpt lat="48.71258" lon="7.32804">
        <ele>261.853027</ele>
        <time>2010-08-09T15:54:57Z</time>
      </trkpt>
      <trkpt lat="48.71248" lon="7.32784">
        <ele>261.103027</ele>
        <time>2010-08-09T15:55:02Z</time>
      </trkpt>
      <trkpt lat="48.71235" lon="7.32769">
        <ele>260.92334</ele>
        <time>2010-08-09T15:55:06Z</time>
      </trkpt>
      <trkpt lat="48.71222" lon="7.32761">
        <ele>261.032715</ele>
        <time>2010-08-09T15:55:10Z</time>
      </trkpt>
      <trkpt lat="48.71209" lon="7.32752">
        <ele>260.946777</ele>
        <time>2010-08-09T15:55:13Z</time>
      </trkpt>
      <trkpt lat="48.71199" lon="7.32735">
        <ele>260.92334</ele>
        <time>2010-08-09T15:55:18Z</time>
      </trkpt>
      <trkpt lat="48.71188" lon="7.32719">
        <ele>260.962402</ele>
        <time>2010-08-09T15:55:23Z</time>
      </trkpt>
      <trkpt lat="48.71173" lon="7.32706">
        <ele>260.774902</ele>
        <time>2010-08-09T15:55:28Z</time>
      </trkpt>
      <trkpt lat="48.71159" lon="7.32698">
        <ele>260.118652</ele>
        <time>2010-08-09T15:55:32Z</time>
      </trkpt>
      <trkpt lat="48.71145" lon="7.32692">
        <ele>259.376465</ele>
        <time>2010-08-09T15:55:35Z</time>
      </trkpt>
      <trkpt lat="48.71139" lon="7.3267">
        <ele>260.32959</ele>
        <time>2010-08-09T15:55:39Z</time>
      </trkpt>
      <trkpt lat="48.7114" lon="7.32645">
        <ele>262.587402</ele>
        <time>2010-08-09T15:55:44Z</time>
      </trkpt>
      <trkpt lat="48.71149" lon="7.32625">
        <ele>262.384277</ele>
        <time>2010-08-09T15:55:48Z</time>
      </trkpt>
      <trkpt lat="48.71146" lon="7.32601">
        <ele>268.07959</ele>
        <time>2010-08-09T15:55:51Z</time>
      </trkpt>
      <trkpt lat="48.71154" lon="7.32585">
        <ele>271.970215</ele>
        <time>2010-08-09T15:55:54Z</time>
      </trkpt>
      <trkpt lat="48.71167" lon="7.32576">
        <ele>271.938965</ele>
        <time>2010-08-09T15:55:56Z</time>
      </trkpt>
      <trkpt lat="48.71182" lon="7.32559">
        <ele>275.376465</ele>
        <time>2010-08-09T15:56:00Z</time>
      </trkpt>
      <trkpt lat="48.71193" lon="7.32545">
        <ele>279.118652</ele>
        <time>2010-08-09T15:56:03Z</time>
      </trkpt>
      <trkpt lat="48.71207" lon="7.32528">
        <ele>283.571777</ele>
        <time>2010-08-09T15:56:06Z</time>
      </trkpt>
      <trkpt lat="48.71206" lon="7.3251">
        <ele>303.39209</ele>
        <time>2010-08-09T15:56:09Z</time>
      </trkpt>
      <trkpt lat="48.71207" lon="7.32491">
        <ele>318.470215</ele>
        <time>2010-08-09T15:56:12Z</time>
      </trkpt>
      <trkpt lat="48.71212" lon="7.32475">
        <ele>327.376465</ele>
        <time>2010-08-09T15:56:15Z</time>
      </trkpt>
      <trkpt lat="48.71215" lon="7.32464">
        <ele>342.876465</ele>
        <time>2010-08-09T15:56:22Z</time>
      </trkpt>
      <trkpt lat="48.71211" lon="7.32474">
        <ele>356.220215</ele>
        <time>2010-08-09T15:56:31Z</time>
      </trkpt>
      <trkpt lat="48.71212" lon="7.32471">
        <ele>371.228027</ele>
        <time>2010-08-09T15:57:00Z</time>
      </trkpt>
      <trkpt lat="48.71226" lon="7.32464">
        <ele>374.978027</ele>
        <time>2010-08-09T15:57:44Z</time>
      </trkpt>
      <trkpt lat="48.71236" lon="7.32447">
        <ele>375.853027</ele>
        <time>2010-08-09T15:57:50Z</time>
      </trkpt>
      <trkpt lat="48.71246" lon="7.32428">
        <ele>377.11084</ele>
        <time>2010-08-09T15:57:54Z</time>
      </trkpt>
      <trkpt lat="48.71256" lon="7.32411">
        <ele>376.251465</ele>
        <time>2010-08-09T15:57:58Z</time>
      </trkpt>
      <trkpt lat="48.71264" lon="7.3239">
        <ele>377.587402</ele>
        <time>2010-08-09T15:58:03Z</time>
      </trkpt>
      <trkpt lat="48.71269" lon="7.32369">
        <ele>377.853027</ele>
        <time>2010-08-09T15:58:07Z</time>
      </trkpt>
      <trkpt lat="48.71274" lon="7.32348">
        <ele>379.42334</ele>
        <time>2010-08-09T15:58:11Z</time>
      </trkpt>
      <trkpt lat="48.71279" lon="7.32325">
        <ele>380.712402</ele>
        <time>2010-08-09T15:58:16Z</time>
      </trkpt>
      <trkpt lat="48.71283" lon="7.32303">
        <ele>382.915527</ele>
        <time>2010-08-09T15:58:20Z</time>
      </trkpt>
      <trkpt lat="48.71286" lon="7.3228">
        <ele>380.42334</ele>
        <time>2010-08-09T15:58:22Z</time>
      </trkpt>
      <trkpt lat="48.71291" lon="7.32261">
        <ele>378.813965</ele>
        <time>2010-08-09T15:58:24Z</time>
      </trkpt>
      <trkpt lat="48.71299" lon="7.3224">
        <ele>381.57959</ele>
        <time>2010-08-09T15:58:27Z</time>
      </trkpt>
      <trkpt lat="48.71307" lon="7.3222">
        <ele>382.962402</ele>
        <time>2010-08-09T15:58:30Z</time>
      </trkpt>
      <trkpt lat="48.71316" lon="7.32201">
        <ele>381.228027</ele>
        <time>2010-08-09T15:58:33Z</time>
      </trkpt>
      <trkpt lat="48.71326" lon="7.32186">
        <ele>381.126465</ele>
        <time>2010-08-09T15:58:37Z</time>
      </trkpt>
      <trkpt lat="48.71341" lon="7.32171">
        <ele>380.98584</ele>
        <time>2010-08-09T15:58:41Z</time>
      </trkpt>
      <trkpt lat="48.71354" lon="7.32159">
        <ele>382.462402</ele>
        <time>2010-08-09T15:58:44Z</time>
      </trkpt>
      <trkpt lat="48.71369" lon="7.32145">
        <ele>378.634277</ele>
        <time>2010-08-09T15:58:47Z</time>
      </trkpt>
      <trkpt lat="48.71384" lon="7.32131">
        <ele>377.462402</ele>
        <time>2010-08-09T15:58:50Z</time>
      </trkpt>
      <trkpt lat="48.71399" lon="7.32124">
        <ele>382.853027</ele>
        <time>2010-08-09T15:58:53Z</time>
      </trkpt>
      <trkpt lat="48.71412" lon="7.32116">
        <ele>384.790527</ele>
        <time>2010-08-09T15:58:56Z</time>
      </trkpt>
      <trkpt lat="48.71425" lon="7.32108">
        <ele>385.126465</ele>
        <time>2010-08-09T15:59:00Z</time>
      </trkpt>
      <trkpt lat="48.7144" lon="7.32103">
        <ele>385.946777</ele>
        <time>2010-08-09T15:59:06Z</time>
      </trkpt>
      <trkpt lat="48.71454" lon="7.32098">
        <ele>385.368652</ele>
        <time>2010-08-09T15:59:12Z</time>
      </trkpt>
      <trkpt lat="48.71467" lon="7.32092">
        <ele>387.962402</ele>
        <time>2010-08-09T15:59:19Z</time>
      </trkpt>
      <trkpt lat="48.71479" lon="7.32082">
        <ele>388.220215</ele>
        <time>2010-08-09T15:59:23Z</time>
      </trkpt>
      <trkpt lat="48.7149" lon="7.32065">
        <ele>388.165527</ele>
        <time>2010-08-09T15:59:28Z</time>
      </trkpt>
      <trkpt lat="48.71491" lon="7.32043">
        <ele>388.688965</ele>
        <time>2010-08-09T15:59:37Z</time>
      </trkpt>
      <trkpt lat="48.71486" lon="7.32024">
        <ele>387.39209</ele>
        <time>2010-08-09T15:59:45Z</time>
      </trkpt>
      <trkpt lat="48.71479" lon="7.32007">
        <ele>384.368652</ele>
        <time>2010-08-09T15:59:54Z</time>
      </trkpt>
      <trkpt lat="48.71471" lon="7.31989">
        <ele>381.01709</ele>
        <time>2010-08-09T16:00:01Z</time>
      </trkpt>
      <trkpt lat="48.71464" lon="7.31971">
        <ele>378.228027</ele>
        <time>2010-08-09T16:00:06Z</time>
      </trkpt>
      <trkpt lat="48.71456" lon="7.31952">
        <ele>376.032715</ele>
        <time>2010-08-09T16:00:10Z</time>
      </trkpt>
      <trkpt lat="48.71446" lon="7.31936">
        <ele>374.95459</ele>
        <time>2010-08-09T16:00:14Z</time>
      </trkpt>
      <trkpt lat="48.71431" lon="7.31922">
        <ele>373.353027</ele>
        <time>2010-08-09T16:00:18Z</time>
      </trkpt>
      <trkpt lat="48.71419" lon="7.31909">
        <ele>372.70459</ele>
        <time>2010-08-09T16:00:22Z</time>
      </trkpt>
      <trkpt lat="48.71405" lon="7.319">
        <ele>370.970215</ele>
        <time>2010-08-09T16:00:26Z</time>
      </trkpt>
      <trkpt lat="48.71387" lon="7.31891">
        <ele>370.243652</ele>
        <time>2010-08-09T16:00:30Z</time>
      </trkpt>
      <trkpt lat="48.71371" lon="7.31888">
        <ele>369.196777</ele>
        <time>2010-08-09T16:00:33Z</time>
      </trkpt>
      <trkpt lat="48.71354" lon="7.31884">
        <ele>367.73584</ele>
        <time>2010-08-09T16:00:36Z</time>
      </trkpt>
      <trkpt lat="48.71339" lon="7.31879">
        <ele>365.821777</ele>
        <time>2010-08-09T16:00:39Z</time>
      </trkpt>
      <trkpt lat="48.71325" lon="7.31874">
        <ele>363.98584</ele>
        <time>2010-08-09T16:00:42Z</time>
      </trkpt>
      <trkpt lat="48.71312" lon="7.31868">
        <ele>363.071777</ele>
        <time>2010-08-09T16:00:45Z</time>
      </trkpt>
      <trkpt lat="48.71298" lon="7.31867">
        <ele>362.126465</ele>
        <time>2010-08-09T16:00:48Z</time>
      </trkpt>
      <trkpt lat="48.7128" lon="7.31864">
        <ele>360.720215</ele>
        <time>2010-08-09T16:00:52Z</time>
      </trkpt>
      <trkpt lat="48.71266" lon="7.31862">
        <ele>359.563965</ele>
        <time>2010-08-09T16:00:55Z</time>
      </trkpt>
      <trkpt lat="48.71251" lon="7.31866">
        <ele>358.45459</ele>
        <time>2010-08-09T16:00:59Z</time>
      </trkpt>
      <trkpt lat="48.71236" lon="7.3187">
        <ele>358.188965</ele>
        <time>2010-08-09T16:01:03Z</time>
      </trkpt>
      <trkpt lat="48.7122" lon="7.31875">
        <ele>358.040527</ele>
        <time>2010-08-09T16:01:08Z</time>
      </trkpt>
      <trkpt lat="48.71206" lon="7.31879">
        <ele>357.493652</ele>
        <time>2010-08-09T16:01:12Z</time>
      </trkpt>
      <trkpt lat="48.71191" lon="7.31882">
        <ele>356.70459</ele>
        <time>2010-08-09T16:01:16Z</time>
      </trkpt>
      <trkpt lat="48.71177" lon="7.31883">
        <ele>356.118652</ele>
        <time>2010-08-09T16:01:20Z</time>
      </trkpt>
      <trkpt lat="48.71163" lon="7.31877">
        <ele>355.087402</ele>
        <time>2010-08-09T16:01:25Z</time>
      </trkpt>
      <trkpt lat="48.71155" lon="7.3186">
        <ele>353.07959</ele>
        <time>2010-08-09T16:01:31Z</time>
      </trkpt>
      <trkpt lat="48.71146" lon="7.31841">
        <ele>350.938965</ele>
        <time>2010-08-09T16:01:36Z</time>
      </trkpt>
      <trkpt lat="48.71141" lon="7.31821">
        <ele>348.431152</ele>
        <time>2010-08-09T16:01:42Z</time>
      </trkpt>
      <trkpt lat="48.71134" lon="7.31791">
        <ele>345.501465</ele>
        <time>2010-08-09T16:01:48Z</time>
      </trkpt>
      <trkpt lat="48.71129" lon="7.31766">
        <ele>344.48584</ele>
        <time>2010-08-09T16:01:53Z</time>
      </trkpt>
      <trkpt lat="48.71123" lon="7.31746">
        <ele>342.868652</ele>
        <time>2010-08-09T16:01:57Z</time>
      </trkpt>
      <trkpt lat="48.71099" lon="7.31735">
        <ele>350.478027</ele>
        <time>2010-08-09T16:02:01Z</time>
      </trkpt>
      <trkpt lat="48.71092" lon="7.31716">
        <ele>355.42334</ele>
        <time>2010-08-09T16:02:06Z</time>
      </trkpt>
      <trkpt lat="48.71087" lon="7.31696">
        <ele>360.306152</ele>
        <time>2010-08-09T16:02:11Z</time>
      </trkpt>
      <trkpt lat="48.71078" lon="7.31675">
        <ele>361.36084</ele>
        <time>2010-08-09T16:02:15Z</time>
      </trkpt>
      <trkpt lat="48.71068" lon="7.31661">
        <ele>362.220215</ele>
        <time>2010-08-09T16:02:18Z</time>
      </trkpt>
      <trkpt lat="48.71061" lon="7.31644">
        <ele>363.212402</ele>
        <time>2010-08-09T16:02:21Z</time>
      </trkpt>
      <trkpt lat="48.71055" lon="7.31621">
        <ele>364.345215</ele>
        <time>2010-08-09T16:02:25Z</time>
      </trkpt>
      <trkpt lat="48.71048" lon="7.31595">
        <ele>363.626465</ele>
        <time>2010-08-09T16:02:29Z</time>
      </trkpt>
      <trkpt lat="48.71042" lon="7.31575">
        <ele>363.032715</ele>
        <time>2010-08-09T16:02:32Z</time>
      </trkpt>
      <trkpt lat="48.71035" lon="7.31557">
        <ele>362.696777</ele>
        <time>2010-08-09T16:02:35Z</time>
      </trkpt>
      <trkpt lat="48.71027" lon="7.3154">
        <ele>361.95459</ele>
        <time>2010-08-09T16:02:38Z</time>
      </trkpt>
      <trkpt lat="48.71016" lon="7.31528">
        <ele>361.26709</ele>
        <time>2010-08-09T16:02:41Z</time>
      </trkpt>
      <trkpt lat="48.71004" lon="7.3151">
        <ele>359.915527</ele>
        <time>2010-08-09T16:02:45Z</time>
      </trkpt>
      <trkpt lat="48.70993" lon="7.31495">
        <ele>358.720215</ele>
        <time>2010-08-09T16:02:49Z</time>
      </trkpt>
      <trkpt lat="48.70982" lon="7.31479">
        <ele>356.938965</ele>
        <time>2010-08-09T16:02:53Z</time>
      </trkpt>
      <trkpt lat="48.70968" lon="7.31466">
        <ele>355.368652</ele>
        <time>2010-08-09T16:02:57Z</time>
      </trkpt>
      <trkpt lat="48.70956" lon="7.31455">
        <ele>353.376465</ele>
        <time>2010-08-09T16:03:02Z</time>
      </trkpt>
      <trkpt lat="48.70937" lon="7.3145">
        <ele>351.813965</ele>
        <time>2010-08-09T16:03:06Z</time>
      </trkpt>
      <trkpt lat="48.7092" lon="7.31451">
        <ele>350.478027</ele>
        <time>2010-08-09T16:03:09Z</time>
      </trkpt>
      <trkpt lat="48.70908" lon="7.31444">
        <ele>348.821777</ele>
        <time>2010-08-09T16:03:13Z</time>
      </trkpt>
      <trkpt lat="48.70893" lon="7.3144">
        <ele>346.806152</ele>
        <time>2010-08-09T16:03:17Z</time>
      </trkpt>
      <trkpt lat="48.70877" lon="7.31441">
        <ele>344.73584</ele>
        <time>2010-08-09T16:03:21Z</time>
      </trkpt>
      <trkpt lat="48.70862" lon="7.31446">
        <ele>342.626465</ele>
        <time>2010-08-09T16:03:25Z</time>
      </trkpt>
      <trkpt lat="48.70847" lon="7.31457">
        <ele>340.48584</ele>
        <time>2010-08-09T16:03:29Z</time>
      </trkpt>
      <trkpt lat="48.70836" lon="7.31468">
        <ele>336.056152</ele>
        <time>2010-08-09T16:03:38Z</time>
      </trkpt>
      <trkpt lat="48.70825" lon="7.31478">
        <ele>333.118652</ele>
        <time>2010-08-09T16:03:47Z</time>
      </trkpt>
      <trkpt lat="48.70811" lon="7.31489">
        <ele>331.899902</ele>
        <time>2010-08-09T16:03:52Z</time>
      </trkpt>
      <trkpt lat="48.70797" lon="7.315">
        <ele>330.306152</ele>
        <time>2010-08-09T16:03:58Z</time>
      </trkpt>
      <trkpt lat="48.70783" lon="7.31507">
        <ele>329.48584</ele>
        <time>2010-08-09T16:04:02Z</time>
      </trkpt>
      <trkpt lat="48.70768" lon="7.31515">
        <ele>328.821777</ele>
        <time>2010-08-09T16:04:06Z</time>
      </trkpt>
      <trkpt lat="48.70755" lon="7.31527">
        <ele>328.14209</ele>
        <time>2010-08-09T16:04:09Z</time>
      </trkpt>
      <trkpt lat="48.70743" lon="7.31537">
        <ele>327.384277</ele>
        <time>2010-08-09T16:04:13Z</time>
      </trkpt>
      <trkpt lat="48.70729" lon="7.31552">
        <ele>326.61084</ele>
        <time>2010-08-09T16:04:17Z</time>
      </trkpt>
      <trkpt lat="48.70717" lon="7.31561">
        <ele>327.17334</ele>
        <time>2010-08-09T16:04:21Z</time>
      </trkpt>
      <trkpt lat="48.70702" lon="7.31564">
        <ele>327.540527</ele>
        <time>2010-08-09T16:04:24Z</time>
      </trkpt>
      <trkpt lat="48.70691" lon="7.31592">
        <ele>326.603027</ele>
        <time>2010-08-09T16:04:26Z</time>
      </trkpt>
      <trkpt lat="48.70679" lon="7.31609">
        <ele>328.626465</ele>
        <time>2010-08-09T16:04:30Z</time>
      </trkpt>
      <trkpt lat="48.70665" lon="7.31627">
        <ele>330.126465</ele>
        <time>2010-08-09T16:04:33Z</time>
      </trkpt>
      <trkpt lat="48.70651" lon="7.31643">
        <ele>331.626465</ele>
        <time>2010-08-09T16:04:36Z</time>
      </trkpt>
      <trkpt lat="48.70639" lon="7.3166">
        <ele>333.64209</ele>
        <time>2010-08-09T16:04:40Z</time>
      </trkpt>
      <trkpt lat="48.70627" lon="7.31677">
        <ele>335.024902</ele>
        <time>2010-08-09T16:04:43Z</time>
      </trkpt>
      <trkpt lat="48.70614" lon="7.31696">
        <ele>336.431152</ele>
        <time>2010-08-09T16:04:46Z</time>
      </trkpt>
      <trkpt lat="48.70603" lon="7.31717">
        <ele>337.126465</ele>
        <time>2010-08-09T16:04:49Z</time>
      </trkpt>
      <trkpt lat="48.70593" lon="7.31739">
        <ele>337.712402</ele>
        <time>2010-08-09T16:04:52Z</time>
      </trkpt>
      <trkpt lat="48.70581" lon="7.31761">
        <ele>338.063965</ele>
        <time>2010-08-09T16:04:55Z</time>
      </trkpt>
      <trkpt lat="48.70578" lon="7.31779">
        <ele>329.103027</ele>
        <time>2010-08-09T16:04:58Z</time>
      </trkpt>
      <trkpt lat="48.70577" lon="7.318">
        <ele>327.61084</ele>
        <time>2010-08-09T16:05:01Z</time>
      </trkpt>
      <trkpt lat="48.70578" lon="7.3182">
        <ele>325.32959</ele>
        <time>2010-08-09T16:05:04Z</time>
      </trkpt>
      <trkpt lat="48.70577" lon="7.31842">
        <ele>323.32959</ele>
        <time>2010-08-09T16:05:07Z</time>
      </trkpt>
      <trkpt lat="48.70575" lon="7.31867">
        <ele>321.157715</ele>
        <time>2010-08-09T16:05:10Z</time>
      </trkpt>
      <trkpt lat="48.70564" lon="7.3189">
        <ele>319.274902</ele>
        <time>2010-08-09T16:05:13Z</time>
      </trkpt>
      <trkpt lat="48.70552" lon="7.31903">
        <ele>317.587402</ele>
        <time>2010-08-09T16:05:16Z</time>
      </trkpt>
      <trkpt lat="48.70534" lon="7.31907">
        <ele>317.493652</ele>
        <time>2010-08-09T16:05:18Z</time>
      </trkpt>
      <trkpt lat="48.70514" lon="7.31915">
        <ele>315.712402</ele>
        <time>2010-08-09T16:05:21Z</time>
      </trkpt>
      <trkpt lat="48.70498" lon="7.31922">
        <ele>314.70459</ele>
        <time>2010-08-09T16:05:23Z</time>
      </trkpt>
      <trkpt lat="48.70482" lon="7.31932">
        <ele>314.056152</ele>
        <time>2010-08-09T16:05:25Z</time>
      </trkpt>
      <trkpt lat="48.70466" lon="7.31945">
        <ele>313.774902</ele>
        <time>2010-08-09T16:05:27Z</time>
      </trkpt>
      <trkpt lat="48.70454" lon="7.31953">
        <ele>313.01709</ele>
        <time>2010-08-09T16:05:29Z</time>
      </trkpt>
      <trkpt lat="48.70443" lon="7.31967">
        <ele>311.821777</ele>
        <time>2010-08-09T16:05:31Z</time>
      </trkpt>
      <trkpt lat="48.70429" lon="7.31983">
        <ele>310.688965</ele>
        <time>2010-08-09T16:05:34Z</time>
      </trkpt>
      <trkpt lat="48.70414" lon="7.31999">
        <ele>309.32959</ele>
        <time>2010-08-09T16:05:37Z</time>
      </trkpt>
      <trkpt lat="48.70395" lon="7.32014">
        <ele>308.368652</ele>
        <time>2010-08-09T16:05:40Z</time>
      </trkpt>
      <trkpt lat="48.70384" lon="7.32027">
        <ele>307.438965</ele>
        <time>2010-08-09T16:05:42Z</time>
      </trkpt>
      <trkpt lat="48.70373" lon="7.32045">
        <ele>307.188965</ele>
        <time>2010-08-09T16:05:44Z</time>
      </trkpt>
      <trkpt lat="48.70358" lon="7.32056">
        <ele>307.001465</ele>
        <time>2010-08-09T16:05:46Z</time>
      </trkpt>
      <trkpt lat="48.70343" lon="7.32075">
        <ele>306.399902</ele>
        <time>2010-08-09T16:05:49Z</time>
      </trkpt>
      <trkpt lat="48.70332" lon="7.32088">
        <ele>306.126465</ele>
        <time>2010-08-09T16:05:51Z</time>
      </trkpt>
      <trkpt lat="48.70324" lon="7.32108">
        <ele>306.220215</ele>
        <time>2010-08-09T16:05:53Z</time>
      </trkpt>
      <trkpt lat="48.70313" lon="7.32124">
        <ele>305.321777</ele>
        <time>2010-08-09T16:05:56Z</time>
      </trkpt>
      <trkpt lat="48.70302" lon="7.32136">
        <ele>303.884277</ele>
        <time>2010-08-09T16:06:00Z</time>
      </trkpt>
      <trkpt lat="48.70288" lon="7.32144">
        <ele>301.845215</ele>
        <time>2010-08-09T16:06:04Z</time>
      </trkpt>
      <trkpt lat="48.70275" lon="7.32149">
        <ele>301.157715</ele>
        <time>2010-08-09T16:06:07Z</time>
      </trkpt>
      <trkpt lat="48.70261" lon="7.32164">
        <ele>299.532715</ele>
        <time>2010-08-09T16:06:12Z</time>
      </trkpt>
      <trkpt lat="48.70249" lon="7.32173">
        <ele>299.071777</ele>
        <time>2010-08-09T16:06:15Z</time>
      </trkpt>
      <trkpt lat="48.70236" lon="7.32183">
        <ele>297.657715</ele>
        <time>2010-08-09T16:06:21Z</time>
      </trkpt>
      <trkpt lat="48.70223" lon="7.32196">
        <ele>296.493652</ele>
        <time>2010-08-09T16:06:27Z</time>
      </trkpt>
      <trkpt lat="48.70211" lon="7.3221">
        <ele>295.868652</ele>
        <time>2010-08-09T16:06:31Z</time>
      </trkpt>
      <trkpt lat="48.70202" lon="7.32225">
        <ele>294.813965</ele>
        <time>2010-08-09T16:06:37Z</time>
      </trkpt>
      <trkpt lat="48.70189" lon="7.32236">
        <ele>294.282715</ele>
        <time>2010-08-09T16:06:45Z</time>
      </trkpt>
      <trkpt lat="48.70179" lon="7.32252">
        <ele>293.103027</ele>
        <time>2010-08-09T16:06:52Z</time>
      </trkpt>
      <trkpt lat="48.70168" lon="7.32262">
        <ele>292.306152</ele>
        <time>2010-08-09T16:06:58Z</time>
      </trkpt>
      <trkpt lat="48.70151" lon="7.32278">
        <ele>291.86084</ele>
        <time>2010-08-09T16:07:03Z</time>
      </trkpt>
      <trkpt lat="48.70139" lon="7.32289">
        <ele>291.431152</ele>
        <time>2010-08-09T16:07:07Z</time>
      </trkpt>
      <trkpt lat="48.70121" lon="7.32298">
        <ele>292.61084</ele>
        <time>2010-08-09T16:07:09Z</time>
      </trkpt>
      <trkpt lat="48.70108" lon="7.32311">
        <ele>292.04834</ele>
        <time>2010-08-09T16:07:15Z</time>
      </trkpt>
      <trkpt lat="48.70093" lon="7.32324">
        <ele>292.540527</ele>
        <time>2010-08-09T16:07:20Z</time>
      </trkpt>
      <trkpt lat="48.70077" lon="7.32345">
        <ele>293.86084</ele>
        <time>2010-08-09T16:07:24Z</time>
      </trkpt>
      <trkpt lat="48.70062" lon="7.32351">
        <ele>296.149902</ele>
        <time>2010-08-09T16:07:29Z</time>
      </trkpt>
      <trkpt lat="48.70055" lon="7.32376">
        <ele>302.556152</ele>
        <time>2010-08-09T16:07:35Z</time>
      </trkpt>
      <trkpt lat="48.70042" lon="7.32388">
        <ele>306.79834</ele>
        <time>2010-08-09T16:07:40Z</time>
      </trkpt>
      <trkpt lat="48.7003" lon="7.32398">
        <ele>308.790527</ele>
        <time>2010-08-09T16:07:43Z</time>
      </trkpt>
      <trkpt lat="48.70022" lon="7.32415">
        <ele>310.759277</ele>
        <time>2010-08-09T16:07:46Z</time>
      </trkpt>
      <trkpt lat="48.70012" lon="7.32429">
        <ele>313.478027</ele>
        <time>2010-08-09T16:07:50Z</time>
      </trkpt>
      <trkpt lat="48.70003" lon="7.32444">
        <ele>318.743652</ele>
        <time>2010-08-09T16:07:56Z</time>
      </trkpt>
      <trkpt lat="48.69989" lon="7.32454">
        <ele>322.01709</ele>
        <time>2010-08-09T16:07:58Z</time>
      </trkpt>
      <trkpt lat="48.69975" lon="7.32467">
        <ele>325.978027</ele>
        <time>2010-08-09T16:08:02Z</time>
      </trkpt>
      <trkpt lat="48.69964" lon="7.32484">
        <ele>326.782715</ele>
        <time>2010-08-09T16:08:04Z</time>
      </trkpt>
      <trkpt lat="48.69954" lon="7.325">
        <ele>329.899902</ele>
        <time>2010-08-09T16:08:07Z</time>
      </trkpt>
      <trkpt lat="48.69941" lon="7.32513">
        <ele>334.196777</ele>
        <time>2010-08-09T16:08:10Z</time>
      </trkpt>
      <trkpt lat="48.69928" lon="7.32531">
        <ele>336.915527</ele>
        <time>2010-08-09T16:08:13Z</time>
      </trkpt>
      <trkpt lat="48.69913" lon="7.32552">
        <ele>340.321777</ele>
        <time>2010-08-09T16:08:16Z</time>
      </trkpt>
      <trkpt lat="48.69898" lon="7.32568">
        <ele>342.595215</ele>
        <time>2010-08-09T16:08:19Z</time>
      </trkpt>
      <trkpt lat="48.69887" lon="7.32579">
        <ele>344.821777</ele>
        <time>2010-08-09T16:08:21Z</time>
      </trkpt>
      <trkpt lat="48.69875" lon="7.32593">
        <ele>346.649902</ele>
        <time>2010-08-09T16:08:23Z</time>
      </trkpt>
      <trkpt lat="48.69859" lon="7.32606">
        <ele>349.196777</ele>
        <time>2010-08-09T16:08:25Z</time>
      </trkpt>
      <trkpt lat="48.69842" lon="7.32614">
        <ele>352.95459</ele>
        <time>2010-08-09T16:08:28Z</time>
      </trkpt>
      <trkpt lat="48.69832" lon="7.3263">
        <ele>354.743652</ele>
        <time>2010-08-09T16:08:29Z</time>
      </trkpt>
      <trkpt lat="48.69815" lon="7.32637">
        <ele>357.720215</ele>
        <time>2010-08-09T16:08:32Z</time>
      </trkpt>
      <trkpt lat="48.698" lon="7.32639">
        <ele>361.07959</ele>
        <time>2010-08-09T16:08:35Z</time>
      </trkpt>
      <trkpt lat="48.69787" lon="7.32642">
        <ele>364.024902</ele>
        <time>2010-08-09T16:08:38Z</time>
      </trkpt>
      <trkpt lat="48.69772" lon="7.32645">
        <ele>368.103027</ele>
        <time>2010-08-09T16:08:42Z</time>
      </trkpt>
      <trkpt lat="48.6976" lon="7.32655">
        <ele>371.149902</ele>
        <time>2010-08-09T16:08:45Z</time>
      </trkpt>
      <trkpt lat="48.69748" lon="7.32664">
        <ele>376.212402</ele>
        <time>2010-08-09T16:08:53Z</time>
      </trkpt>
      <trkpt lat="48.69731" lon="7.3266">
        <ele>380.29834</ele>
        <time>2010-08-09T16:08:58Z</time>
      </trkpt>
      <trkpt lat="48.69714" lon="7.32656">
        <ele>385.01709</ele>
        <time>2010-08-09T16:09:02Z</time>
      </trkpt>
      <trkpt lat="48.69698" lon="7.32658">
        <ele>391.853027</ele>
        <time>2010-08-09T16:09:06Z</time>
      </trkpt>
      <trkpt lat="48.69687" lon="7.32659">
        <ele>399.845215</ele>
        <time>2010-08-09T16:09:09Z</time>
      </trkpt>
      <trkpt lat="48.69673" lon="7.32669">
        <ele>400.04834</ele>
        <time>2010-08-09T16:09:14Z</time>
      </trkpt>
      <trkpt lat="48.69678" lon="7.32685">
        <ele>392.032715</ele>
        <time>2010-08-09T16:10:46Z</time>
      </trkpt>
      <trkpt lat="48.69674" lon="7.32666">
        <ele>386.962402</ele>
        <time>2010-08-09T16:11:00Z</time>
      </trkpt>
      <trkpt lat="48.69678" lon="7.32645">
        <ele>387.040527</ele>
        <time>2010-08-09T16:11:08Z</time>
      </trkpt>
      <trkpt lat="48.69675" lon="7.32667">
        <ele>388.438965</ele>
        <time>2010-08-09T16:13:24Z</time>
      </trkpt>
      <trkpt lat="48.69678" lon="7.32688">
        <ele>388.290527</ele>
        <time>2010-08-09T16:13:39Z</time>
      </trkpt>
      <trkpt lat="48.69691" lon="7.32697">
        <ele>389.188965</ele>
        <time>2010-08-09T16:13:49Z</time>
      </trkpt>
      <trkpt lat="48.69702" lon="7.32708">
        <ele>395.337402</ele>
        <time>2010-08-09T16:13:59Z</time>
      </trkpt>
      <trkpt lat="48.69711" lon="7.32722">
        <ele>400.243652</ele>
        <time>2010-08-09T16:14:05Z</time>
      </trkpt>
      <trkpt lat="48.69718" lon="7.32742">
        <ele>405.095215</ele>
        <time>2010-08-09T16:14:13Z</time>
      </trkpt>
      <trkpt lat="48.69723" lon="7.32761">
        <ele>408.64209</ele>
        <time>2010-08-09T16:14:20Z</time>
      </trkpt>
      <trkpt lat="48.69728" lon="7.3278">
        <ele>412.853027</ele>
        <time>2010-08-09T16:14:27Z</time>
      </trkpt>
      <trkpt lat="48.69736" lon="7.32798">
        <ele>417.634277</ele>
        <time>2010-08-09T16:14:34Z</time>
      </trkpt>
      <trkpt lat="48.69742" lon="7.32815">
        <ele>422.087402</ele>
        <time>2010-08-09T16:14:40Z</time>
      </trkpt>
      <trkpt lat="48.6975" lon="7.32832">
        <ele>427.345215</ele>
        <time>2010-08-09T16:14:47Z</time>
      </trkpt>
      <trkpt lat="48.69759" lon="7.32847">
        <ele>432.36084</ele>
        <time>2010-08-09T16:14:53Z</time>
      </trkpt>
      <trkpt lat="48.6977" lon="7.3286">
        <ele>436.188965</ele>
        <time>2010-08-09T16:14:58Z</time>
      </trkpt>
      <trkpt lat="48.69775" lon="7.32879">
        <ele>440.23584</ele>
        <time>2010-08-09T16:15:03Z</time>
      </trkpt>
      <trkpt lat="48.6978" lon="7.32898">
        <ele>443.57959</ele>
        <time>2010-08-09T16:15:08Z</time>
      </trkpt>
      <trkpt lat="48.69792" lon="7.32914">
        <ele>445.73584</ele>
        <time>2010-08-09T16:15:13Z</time>
      </trkpt>
      <trkpt lat="48.69804" lon="7.32932">
        <ele>443.39209</ele>
        <time>2010-08-09T16:15:18Z</time>
      </trkpt>
      <trkpt lat="48.69815" lon="7.32945">
        <ele>445.595215</ele>
        <time>2010-08-09T16:15:23Z</time>
      </trkpt>
      <trkpt lat="48.69828" lon="7.32955">
        <ele>446.103027</ele>
        <time>2010-08-09T16:15:28Z</time>
      </trkpt>
      <trkpt lat="48.69842" lon="7.32965">
        <ele>447.157715</ele>
        <time>2010-08-09T16:15:33Z</time>
      </trkpt>
      <trkpt lat="48.69856" lon="7.32976">
        <ele>449.11084</ele>
        <time>2010-08-09T16:15:39Z</time>
      </trkpt>
      <trkpt lat="48.69868" lon="7.32982">
        <ele>455.001465</ele>
        <time>2010-08-09T16:15:47Z</time>
      </trkpt>
      <trkpt lat="48.69882" lon="7.32989">
        <ele>459.282715</ele>
        <time>2010-08-09T16:15:53Z</time>
      </trkpt>
      <trkpt lat="48.69898" lon="7.32994">
        <ele>462.595215</ele>
        <time>2010-08-09T16:15:58Z</time>
      </trkpt>
      <trkpt lat="48.69913" lon="7.33">
        <ele>463.126465</ele>
        <time>2010-08-09T16:16:01Z</time>
      </trkpt>
      <trkpt lat="48.69928" lon="7.32997">
        <ele>466.36084</ele>
        <time>2010-08-09T16:16:08Z</time>
      </trkpt>
      <trkpt lat="48.69939" lon="7.33006">
        <ele>462.345215</ele>
        <time>2010-08-09T16:16:14Z</time>
      </trkpt>
      <trkpt lat="48.69955" lon="7.33011">
        <ele>462.407715</ele>
        <time>2010-08-09T16:16:19Z</time>
      </trkpt>
      <trkpt lat="48.69971" lon="7.33008">
        <ele>463.532715</ele>
        <time>2010-08-09T16:16:25Z</time>
      </trkpt>
      <trkpt lat="48.69985" lon="7.33003">
        <ele>464.36084</ele>
        <time>2010-08-09T16:16:32Z</time>
      </trkpt>
      <trkpt lat="48.69998" lon="7.32993">
        <ele>457.782715</ele>
        <time>2010-08-09T16:16:39Z</time>
      </trkpt>
      <trkpt lat="48.70012" lon="7.32984">
        <ele>452.524902</ele>
        <time>2010-08-09T16:16:48Z</time>
      </trkpt>
      <trkpt lat="48.70025" lon="7.32979">
        <ele>448.165527</ele>
        <time>2010-08-09T16:17:00Z</time>
      </trkpt>
      <trkpt lat="48.70038" lon="7.32976">
        <ele>446.345215</ele>
        <time>2010-08-09T16:17:07Z</time>
      </trkpt>
      <trkpt lat="48.70052" lon="7.32973">
        <ele>444.813965</ele>
        <time>2010-08-09T16:17:13Z</time>
      </trkpt>
      <trkpt lat="48.70065" lon="7.32967">
        <ele>444.103027</ele>
        <time>2010-08-09T16:17:18Z</time>
      </trkpt>
      <trkpt lat="48.70079" lon="7.32957">
        <ele>443.970215</ele>
        <time>2010-08-09T16:17:25Z</time>
      </trkpt>
      <trkpt lat="48.70094" lon="7.32953">
        <ele>444.134277</ele>
        <time>2010-08-09T16:17:31Z</time>
      </trkpt>
      <trkpt lat="48.70105" lon="7.32937">
        <ele>442.821777</ele>
        <time>2010-08-09T16:17:35Z</time>
      </trkpt>
      <trkpt lat="48.70117" lon="7.3293">
        <ele>442.64209</ele>
        <time>2010-08-09T16:17:42Z</time>
      </trkpt>
      <trkpt lat="48.7013" lon="7.32924">
        <ele>443.118652</ele>
        <time>2010-08-09T16:17:50Z</time>
      </trkpt>
      <trkpt lat="48.70145" lon="7.32927">
        <ele>441.181152</ele>
        <time>2010-08-09T16:17:59Z</time>
      </trkpt>
      <trkpt lat="48.70157" lon="7.32932">
        <ele>447.306152</ele>
        <time>2010-08-09T16:18:06Z</time>
      </trkpt>
      <trkpt lat="48.70169" lon="7.32923">
        <ele>445.813965</ele>
        <time>2010-08-09T16:18:11Z</time>
      </trkpt>
      <trkpt lat="48.70183" lon="7.32922">
        <ele>451.26709</ele>
        <time>2010-08-09T16:18:20Z</time>
      </trkpt>
      <trkpt lat="48.70197" lon="7.32919">
        <ele>450.353027</ele>
        <time>2010-08-09T16:18:27Z</time>
      </trkpt>
      <trkpt lat="48.7021" lon="7.32909">
        <ele>451.54834</ele>
        <time>2010-08-09T16:18:53Z</time>
      </trkpt>
      <trkpt lat="48.70225" lon="7.32909">
        <ele>452.493652</ele>
        <time>2010-08-09T16:19:00Z</time>
      </trkpt>
      <trkpt lat="48.70237" lon="7.32915">
        <ele>457.14209</ele>
        <time>2010-08-09T16:19:09Z</time>
      </trkpt>
      <trkpt lat="48.70251" lon="7.32915">
        <ele>461.509277</ele>
        <time>2010-08-09T16:19:18Z</time>
      </trkpt>
      <trkpt lat="48.70263" lon="7.32907">
        <ele>468.45459</ele>
        <time>2010-08-09T16:19:24Z</time>
      </trkpt>
      <trkpt lat="48.70279" lon="7.32907">
        <ele>470.39209</ele>
        <time>2010-08-09T16:19:32Z</time>
      </trkpt>
      <trkpt lat="48.70292" lon="7.32906">
        <ele>472.657715</ele>
        <time>2010-08-09T16:19:38Z</time>
      </trkpt>
      <trkpt lat="48.70307" lon="7.32908">
        <ele>474.665527</ele>
        <time>2010-08-09T16:19:44Z</time>
      </trkpt>
      <trkpt lat="48.70321" lon="7.3291">
        <ele>478.063965</ele>
        <time>2010-08-09T16:19:54Z</time>
      </trkpt>
      <trkpt lat="48.70334" lon="7.32908">
        <ele>478.149902</ele>
        <time>2010-08-09T16:19:59Z</time>
      </trkpt>
      <trkpt lat="48.7035" lon="7.32907">
        <ele>479.821777</ele>
        <time>2010-08-09T16:20:06Z</time>
      </trkpt>
      <trkpt lat="48.70363" lon="7.32912">
        <ele>485.587402</ele>
        <time>2010-08-09T16:20:14Z</time>
      </trkpt>
      <trkpt lat="48.70379" lon="7.3292">
        <ele>486.603027</ele>
        <time>2010-08-09T16:20:19Z</time>
      </trkpt>
      <trkpt lat="48.70394" lon="7.32916">
        <ele>484.938965</ele>
        <time>2010-08-09T16:20:24Z</time>
      </trkpt>
      <trkpt lat="48.70409" lon="7.32913">
        <ele>490.446777</ele>
        <time>2010-08-09T16:20:32Z</time>
      </trkpt>
      <trkpt lat="48.70422" lon="7.32914">
        <ele>489.212402</ele>
        <time>2010-08-09T16:20:41Z</time>
      </trkpt>
      <trkpt lat="48.70436" lon="7.32917">
        <ele>487.20459</ele>
        <time>2010-08-09T16:20:46Z</time>
      </trkpt>
      <trkpt lat="48.70449" lon="7.32925">
        <ele>490.14209</ele>
        <time>2010-08-09T16:20:55Z</time>
      </trkpt>
      <trkpt lat="48.70462" lon="7.32933">
        <ele>488.438965</ele>
        <time>2010-08-09T16:21:01Z</time>
      </trkpt>
      <trkpt lat="48.70478" lon="7.32937">
        <ele>488.243652</ele>
        <time>2010-08-09T16:21:07Z</time>
      </trkpt>
      <trkpt lat="48.70491" lon="7.32944">
        <ele>485.438965</ele>
        <time>2010-08-09T16:21:11Z</time>
      </trkpt>
      <trkpt lat="48.70504" lon="7.32947">
        <ele>490.087402</ele>
        <time>2010-08-09T16:21:17Z</time>
      </trkpt>
      <trkpt lat="48.70517" lon="7.32952">
        <ele>493.20459</ele>
        <time>2010-08-09T16:21:24Z</time>
      </trkpt>
      <trkpt lat="48.7053" lon="7.32958">
        <ele>493.681152</ele>
        <time>2010-08-09T16:21:31Z</time>
      </trkpt>
      <trkpt lat="48.70544" lon="7.32959">
        <ele>491.76709</ele>
        <time>2010-08-09T16:21:41Z</time>
      </trkpt>
      <trkpt lat="48.70559" lon="7.32958">
        <ele>487.853027</ele>
        <time>2010-08-09T16:21:45Z</time>
      </trkpt>
      <trkpt lat="48.70572" lon="7.32959">
        <ele>484.603027</ele>
        <time>2010-08-09T16:21:50Z</time>
      </trkpt>
      <trkpt lat="48.70584" lon="7.32967">
        <ele>479.759277</ele>
        <time>2010-08-09T16:22:11Z</time>
      </trkpt>
      <trkpt lat="48.70598" lon="7.32962">
        <ele>477.92334</ele>
        <time>2010-08-09T16:22:20Z</time>
      </trkpt>
      <trkpt lat="48.70612" lon="7.32967">
        <ele>477.782715</ele>
        <time>2010-08-09T16:22:24Z</time>
      </trkpt>
      <trkpt lat="48.70629" lon="7.32976">
        <ele>477.743652</ele>
        <time>2010-08-09T16:22:28Z</time>
      </trkpt>
      <trkpt lat="48.70643" lon="7.32978">
        <ele>478.071777</ele>
        <time>2010-08-09T16:22:34Z</time>
      </trkpt>
      <trkpt lat="48.70655" lon="7.32993">
        <ele>479.290527</ele>
        <time>2010-08-09T16:22:58Z</time>
      </trkpt>
      <trkpt lat="48.7067" lon="7.33007">
        <ele>484.20459</ele>
        <time>2010-08-09T16:23:01Z</time>
      </trkpt>
      <trkpt lat="48.70689" lon="7.33022">
        <ele>482.76709</ele>
        <time>2010-08-09T16:23:04Z</time>
      </trkpt>
      <trkpt lat="48.70704" lon="7.33036">
        <ele>480.649902</ele>
        <time>2010-08-09T16:23:07Z</time>
      </trkpt>
      <trkpt lat="48.70721" lon="7.33049">
        <ele>481.782715</ele>
        <time>2010-08-09T16:23:10Z</time>
      </trkpt>
      <trkpt lat="48.70734" lon="7.33064">
        <ele>482.024902</ele>
        <time>2010-08-09T16:23:13Z</time>
      </trkpt>
      <trkpt lat="48.70751" lon="7.33081">
        <ele>482.11084</ele>
        <time>2010-08-09T16:23:16Z</time>
      </trkpt>
      <trkpt lat="48.70766" lon="7.33102">
        <ele>480.345215</ele>
        <time>2010-08-09T16:23:19Z</time>
      </trkpt>
      <trkpt lat="48.70776" lon="7.33117">
        <ele>478.813965</ele>
        <time>2010-08-09T16:23:21Z</time>
      </trkpt>
      <trkpt lat="48.7079" lon="7.33129">
        <ele>474.51709</ele>
        <time>2010-08-09T16:23:24Z</time>
      </trkpt>
      <trkpt lat="48.70807" lon="7.33139">
        <ele>472.681152</ele>
        <time>2010-08-09T16:23:27Z</time>
      </trkpt>
      <trkpt lat="48.70823" lon="7.33144">
        <ele>471.962402</ele>
        <time>2010-08-09T16:23:30Z</time>
      </trkpt>
      <trkpt lat="48.70839" lon="7.33153">
        <ele>471.384277</ele>
        <time>2010-08-09T16:23:33Z</time>
      </trkpt>
      <trkpt lat="48.70853" lon="7.3316">
        <ele>469.759277</ele>
        <time>2010-08-09T16:23:37Z</time>
      </trkpt>
      <trkpt lat="48.70868" lon="7.33174">
        <ele>466.45459</ele>
        <time>2010-08-09T16:23:41Z</time>
      </trkpt>
      <trkpt lat="48.70882" lon="7.33182">
        <ele>465.157715</ele>
        <time>2010-08-09T16:23:44Z</time>
      </trkpt>
      <trkpt lat="48.70895" lon="7.33189">
        <ele>463.603027</ele>
        <time>2010-08-09T16:23:47Z</time>
      </trkpt>
      <trkpt lat="48.70909" lon="7.33194">
        <ele>464.76709</ele>
        <time>2010-08-09T16:23:50Z</time>
      </trkpt>
      <trkpt lat="48.70924" lon="7.33204">
        <ele>466.938965</ele>
        <time>2010-08-09T16:23:54Z</time>
      </trkpt>
      <trkpt lat="48.70942" lon="7.33211">
        <ele>466.970215</ele>
        <time>2010-08-09T16:23:57Z</time>
      </trkpt>
      <trkpt lat="48.70955" lon="7.33219">
        <ele>466.353027</ele>
        <time>2010-08-09T16:24:00Z</time>
      </trkpt>
      <trkpt lat="48.70969" lon="7.33224">
        <ele>466.634277</ele>
        <time>2010-08-09T16:24:03Z</time>
      </trkpt>
      <trkpt lat="48.70985" lon="7.33225">
        <ele>468.493652</ele>
        <time>2010-08-09T16:24:06Z</time>
      </trkpt>
      <trkpt lat="48.71003" lon="7.3323">
        <ele>468.438965</ele>
        <time>2010-08-09T16:24:11Z</time>
      </trkpt>
      <trkpt lat="48.71016" lon="7.33233">
        <ele>467.32959</ele>
        <time>2010-08-09T16:24:20Z</time>
      </trkpt>
      <trkpt lat="48.71033" lon="7.33236">
        <ele>466.681152</ele>
        <time>2010-08-09T16:24:26Z</time>
      </trkpt>
      <trkpt lat="48.71047" lon="7.33239">
        <ele>468.29834</ele>
        <time>2010-08-09T16:24:30Z</time>
      </trkpt>
      <trkpt lat="48.71061" lon="7.33238">
        <ele>467.313965</ele>
        <time>2010-08-09T16:24:34Z</time>
      </trkpt>
      <trkpt lat="48.71076" lon="7.33229">
        <ele>463.712402</ele>
        <time>2010-08-09T16:24:39Z</time>
      </trkpt>
      <trkpt lat="48.71088" lon="7.33211">
        <ele>458.556152</ele>
        <time>2010-08-09T16:24:43Z</time>
      </trkpt>
      <trkpt lat="48.71102" lon="7.332">
        <ele>457.603027</ele>
        <time>2010-08-09T16:24:47Z</time>
      </trkpt>
      <trkpt lat="48.71115" lon="7.33192">
        <ele>456.837402</ele>
        <time>2010-08-09T16:24:51Z</time>
      </trkpt>
      <trkpt lat="48.7113" lon="7.33182">
        <ele>460.26709</ele>
        <time>2010-08-09T16:24:54Z</time>
      </trkpt>
      <trkpt lat="48.71138" lon="7.33163">
        <ele>458.962402</ele>
        <time>2010-08-09T16:24:59Z</time>
      </trkpt>
      <trkpt lat="48.71135" lon="7.33143">
        <ele>456.86084</ele>
        <time>2010-08-09T16:25:03Z</time>
      </trkpt>
      <trkpt lat="48.71128" lon="7.33126">
        <ele>454.634277</ele>
        <time>2010-08-09T16:25:08Z</time>
      </trkpt>
      <trkpt lat="48.71122" lon="7.33111">
        <ele>444.70459</ele>
        <time>2010-08-09T16:25:13Z</time>
      </trkpt>
      <trkpt lat="48.71117" lon="7.33092">
        <ele>439.524902</ele>
        <time>2010-08-09T16:25:20Z</time>
      </trkpt>
      <trkpt lat="48.71111" lon="7.33072">
        <ele>435.837402</ele>
        <time>2010-08-09T16:25:28Z</time>
      </trkpt>
      <trkpt lat="48.71104" lon="7.33052">
        <ele>431.306152</ele>
        <time>2010-08-09T16:25:34Z</time>
      </trkpt>
      <trkpt lat="48.71094" lon="7.33037">
        <ele>431.86084</ele>
        <time>2010-08-09T16:25:40Z</time>
      </trkpt>
      <trkpt lat="48.71084" lon="7.3302">
        <ele>431.196777</ele>
        <time>2010-08-09T16:25:47Z</time>
      </trkpt>
      <trkpt lat="48.71074" lon="7.33005">
        <ele>433.063965</ele>
        <time>2010-08-09T16:25:54Z</time>
      </trkpt>
      <trkpt lat="48.71065" lon="7.32987">
        <ele>433.009277</ele>
        <time>2010-08-09T16:26:01Z</time>
      </trkpt>
      <trkpt lat="48.71058" lon="7.32968">
        <ele>434.376465</ele>
        <time>2010-08-09T16:26:09Z</time>
      </trkpt>
      <trkpt lat="48.7105" lon="7.32949">
        <ele>434.67334</ele>
        <time>2010-08-09T16:26:18Z</time>
      </trkpt>
      <trkpt lat="48.71039" lon="7.32935">
        <ele>436.438965</ele>
        <time>2010-08-09T16:26:26Z</time>
      </trkpt>
      <trkpt lat="48.71029" lon="7.32921">
        <ele>438.509277</ele>
        <time>2010-08-09T16:26:34Z</time>
      </trkpt>
      <trkpt lat="48.71019" lon="7.32906">
        <ele>440.876465</ele>
        <time>2010-08-09T16:26:43Z</time>
      </trkpt>
      <trkpt lat="48.71008" lon="7.32893">
        <ele>442.126465</ele>
        <time>2010-08-09T16:26:50Z</time>
      </trkpt>
      <trkpt lat="48.70996" lon="7.32878">
        <ele>441.884277</ele>
        <time>2010-08-09T16:26:56Z</time>
      </trkpt>
      <trkpt lat="48.70985" lon="7.32866">
        <ele>442.32959</ele>
        <time>2010-08-09T16:27:01Z</time>
      </trkpt>
      <trkpt lat="48.70973" lon="7.32854">
        <ele>442.634277</ele>
        <time>2010-08-09T16:27:05Z</time>
      </trkpt>
      <trkpt lat="48.70959" lon="7.32843">
        <ele>442.220215</ele>
        <time>2010-08-09T16:27:10Z</time>
      </trkpt>
      <trkpt lat="48.70944" lon="7.32834">
        <ele>440.501465</ele>
        <time>2010-08-09T16:27:15Z</time>
      </trkpt>
      <trkpt lat="48.70931" lon="7.32824">
        <ele>440.853027</ele>
        <time>2010-08-09T16:27:20Z</time>
      </trkpt>
      <trkpt lat="48.70919" lon="7.32807">
        <ele>441.931152</ele>
        <time>2010-08-09T16:27:26Z</time>
      </trkpt>
      <trkpt lat="48.7091" lon="7.32791">
        <ele>441.821777</ele>
        <time>2010-08-09T16:27:30Z</time>
      </trkpt>
      <trkpt lat="48.70907" lon="7.32771">
        <ele>443.884277</ele>
        <time>2010-08-09T16:27:34Z</time>
      </trkpt>
      <trkpt lat="48.70908" lon="7.3275">
        <ele>446.368652</ele>
        <time>2010-08-09T16:27:38Z</time>
      </trkpt>
      <trkpt lat="48.70911" lon="7.32725">
        <ele>450.01709</ele>
        <time>2010-08-09T16:27:43Z</time>
      </trkpt>
      <trkpt lat="48.70915" lon="7.32704">
        <ele>451.368652</ele>
        <time>2010-08-09T16:27:46Z</time>
      </trkpt>
      <trkpt lat="48.70916" lon="7.32682">
        <ele>454.196777</ele>
        <time>2010-08-09T16:27:50Z</time>
      </trkpt>
      <trkpt lat="48.70922" lon="7.3266">
        <ele>455.243652</ele>
        <time>2010-08-09T16:27:54Z</time>
      </trkpt>
      <trkpt lat="48.7093" lon="7.32641">
        <ele>456.181152</ele>
        <time>2010-08-09T16:27:58Z</time>
      </trkpt>
      <trkpt lat="48.70938" lon="7.32621">
        <ele>457.813965</ele>
        <time>2010-08-09T16:28:02Z</time>
      </trkpt>
      <trkpt lat="48.70945" lon="7.32602">
        <ele>459.368652</ele>
        <time>2010-08-09T16:28:05Z</time>
      </trkpt>
      <trkpt lat="48.70953" lon="7.32584">
        <ele>458.86084</ele>
        <time>2010-08-09T16:28:08Z</time>
      </trkpt>
      <trkpt lat="48.70964" lon="7.32563">
        <ele>460.696777</ele>
        <time>2010-08-09T16:28:12Z</time>
      </trkpt>
      <trkpt lat="48.70978" lon="7.32556">
        <ele>461.92334</ele>
        <time>2010-08-09T16:28:16Z</time>
      </trkpt>
      <trkpt lat="48.70993" lon="7.32546">
        <ele>464.938965</ele>
        <time>2010-08-09T16:28:21Z</time>
      </trkpt>
      <trkpt lat="48.71003" lon="7.3253">
        <ele>470.67334</ele>
        <time>2010-08-09T16:28:26Z</time>
      </trkpt>
      <trkpt lat="48.71012" lon="7.32515">
        <ele>474.876465</ele>
        <time>2010-08-09T16:28:31Z</time>
      </trkpt>
      <trkpt lat="48.71023" lon="7.325">
        <ele>478.86084</ele>
        <time>2010-08-09T16:28:37Z</time>
      </trkpt>
      <trkpt lat="48.71032" lon="7.32477">
        <ele>480.98584</ele>
        <time>2010-08-09T16:28:45Z</time>
      </trkpt>
      <trkpt lat="48.71042" lon="7.3246">
        <ele>478.290527</ele>
        <time>2010-08-09T16:28:51Z</time>
      </trkpt>
      <trkpt lat="48.7105" lon="7.32443">
        <ele>477.48584</ele>
        <time>2010-08-09T16:28:55Z</time>
      </trkpt>
      <trkpt lat="48.7106" lon="7.32424">
        <ele>476.790527</ele>
        <time>2010-08-09T16:29:01Z</time>
      </trkpt>
      <trkpt lat="48.7107" lon="7.32409">
        <ele>477.556152</ele>
        <time>2010-08-09T16:29:07Z</time>
      </trkpt>
      <trkpt lat="48.71076" lon="7.32384">
        <ele>478.337402</ele>
        <time>2010-08-09T16:29:11Z</time>
      </trkpt>
      <trkpt lat="48.71087" lon="7.32373">
        <ele>480.470215</ele>
        <time>2010-08-09T16:29:16Z</time>
      </trkpt>
      <trkpt lat="48.711" lon="7.32362">
        <ele>483.228027</ele>
        <time>2010-08-09T16:29:24Z</time>
      </trkpt>
      <trkpt lat="48.71107" lon="7.32338">
        <ele>483.665527</ele>
        <time>2010-08-09T16:29:30Z</time>
      </trkpt>
      <trkpt lat="48.71114" lon="7.3232">
        <ele>481.915527</ele>
        <time>2010-08-09T16:29:37Z</time>
      </trkpt>
      <trkpt lat="48.71119" lon="7.32299">
        <ele>481.157715</ele>
        <time>2010-08-09T16:29:43Z</time>
      </trkpt>
      <trkpt lat="48.71121" lon="7.32276">
        <ele>481.220215</ele>
        <time>2010-08-09T16:29:53Z</time>
      </trkpt>
      <trkpt lat="48.71125" lon="7.32255">
        <ele>483.462402</ele>
        <time>2010-08-09T16:30:00Z</time>
      </trkpt>
      <trkpt lat="48.71127" lon="7.32233">
        <ele>483.884277</ele>
        <time>2010-08-09T16:30:04Z</time>
      </trkpt>
      <trkpt lat="48.71129" lon="7.32209">
        <ele>484.743652</ele>
        <time>2010-08-09T16:30:11Z</time>
      </trkpt>
      <trkpt lat="48.71133" lon="7.32187">
        <ele>484.571777</ele>
        <time>2010-08-09T16:30:20Z</time>
      </trkpt>
      <trkpt lat="48.71133" lon="7.32163">
        <ele>484.313965</ele>
        <time>2010-08-09T16:30:27Z</time>
      </trkpt>
      <trkpt lat="48.71132" lon="7.32142">
        <ele>480.634277</ele>
        <time>2010-08-09T16:30:33Z</time>
      </trkpt>
      <trkpt lat="48.71118" lon="7.32136">
        <ele>477.595215</ele>
        <time>2010-08-09T16:30:41Z</time>
      </trkpt>
      <trkpt lat="48.71105" lon="7.32129">
        <ele>476.813965</ele>
        <time>2010-08-09T16:30:50Z</time>
      </trkpt>
      <trkpt lat="48.7109" lon="7.32119">
        <ele>477.313965</ele>
        <time>2010-08-09T16:30:57Z</time>
      </trkpt>
      <trkpt lat="48.71078" lon="7.32111">
        <ele>477.76709</ele>
        <time>2010-08-09T16:31:03Z</time>
      </trkpt>
      <trkpt lat="48.71063" lon="7.32104">
        <ele>478.790527</ele>
        <time>2010-08-09T16:31:09Z</time>
      </trkpt>
      <trkpt lat="48.71051" lon="7.32092">
        <ele>479.290527</ele>
        <time>2010-08-09T16:31:14Z</time>
      </trkpt>
      <trkpt lat="48.71038" lon="7.32077">
        <ele>480.665527</ele>
        <time>2010-08-09T16:31:20Z</time>
      </trkpt>
      <trkpt lat="48.71027" lon="7.32062">
        <ele>482.165527</ele>
        <time>2010-08-09T16:31:25Z</time>
      </trkpt>
      <trkpt lat="48.71016" lon="7.32046">
        <ele>484.23584</ele>
        <time>2010-08-09T16:31:32Z</time>
      </trkpt>
      <trkpt lat="48.71006" lon="7.32031">
        <ele>485.39209</ele>
        <time>2010-08-09T16:31:38Z</time>
      </trkpt>
      <trkpt lat="48.70996" lon="7.32014">
        <ele>486.688965</ele>
        <time>2010-08-09T16:31:45Z</time>
      </trkpt>
      <trkpt lat="48.70985" lon="7.31998">
        <ele>488.087402</ele>
        <time>2010-08-09T16:31:51Z</time>
      </trkpt>
      <trkpt lat="48.70974" lon="7.31983">
        <ele>488.634277</ele>
        <time>2010-08-09T16:31:57Z</time>
      </trkpt>
      <trkpt lat="48.70962" lon="7.31968">
        <ele>488.688965</ele>
        <time>2010-08-09T16:32:03Z</time>
      </trkpt>
      <trkpt lat="48.70953" lon="7.31953">
        <ele>488.57959</ele>
        <time>2010-08-09T16:32:08Z</time>
      </trkpt>
      <trkpt lat="48.70942" lon="7.31941">
        <ele>481.095215</ele>
        <time>2010-08-09T16:32:14Z</time>
      </trkpt>
      <trkpt lat="48.70935" lon="7.31924">
        <ele>477.024902</ele>
        <time>2010-08-09T16:32:21Z</time>
      </trkpt>
      <trkpt lat="48.70928" lon="7.31904">
        <ele>474.45459</ele>
        <time>2010-08-09T16:32:28Z</time>
      </trkpt>
      <trkpt lat="48.70917" lon="7.31889">
        <ele>472.32959</ele>
        <time>2010-08-09T16:32:33Z</time>
      </trkpt>
      <trkpt lat="48.70908" lon="7.3187">
        <ele>470.399902</ele>
        <time>2010-08-09T16:32:39Z</time>
      </trkpt>
      <trkpt lat="48.709" lon="7.31853">
        <ele>469.61084</ele>
        <time>2010-08-09T16:32:43Z</time>
      </trkpt>
      <trkpt lat="48.7089" lon="7.31836">
        <ele>470.532715</ele>
        <time>2010-08-09T16:32:48Z</time>
      </trkpt>
      <trkpt lat="48.70885" lon="7.31815">
        <ele>473.774902</ele>
        <time>2010-08-09T16:32:53Z</time>
      </trkpt>
      <trkpt lat="48.70873" lon="7.31808">
        <ele>476.61084</ele>
        <time>2010-08-09T16:33:03Z</time>
      </trkpt>
      <trkpt lat="48.70874" lon="7.31825">
        <ele>485.696777</ele>
        <time>2010-08-09T16:33:22Z</time>
      </trkpt>
      <trkpt lat="48.70879" lon="7.31843">
        <ele>492.251465</ele>
        <time>2010-08-09T16:33:34Z</time>
      </trkpt>
      <trkpt lat="48.70885" lon="7.31859">
        <ele>499.462402</ele>
        <time>2010-08-09T16:33:44Z</time>
      </trkpt>
      <trkpt lat="48.7089" lon="7.31878">
        <ele>506.056152</ele>
        <time>2010-08-09T16:33:56Z</time>
      </trkpt>
      <trkpt lat="48.70894" lon="7.31899">
        <ele>511.42334</ele>
        <time>2010-08-09T16:34:06Z</time>
      </trkpt>
      <trkpt lat="48.70898" lon="7.31921">
        <ele>513.518555</ele>
        <time>2010-08-09T16:34:15Z</time>
      </trkpt>
      <trkpt lat="48.70898" lon="7.31942">
        <ele>512.34668</ele>
        <time>2010-08-09T16:34:23Z</time>
      </trkpt>
      <trkpt lat="48.70902" lon="7.31964">
        <ele>513.28418</ele>
        <time>2010-08-09T16:34:34Z</time>
      </trkpt>
      <trkpt lat="48.70908" lon="7.31982">
        <ele>514.90918</ele>
        <time>2010-08-09T16:34:44Z</time>
      </trkpt>
      <trkpt lat="48.70912" lon="7.32005">
        <ele>513.65918</ele>
        <time>2010-08-09T16:34:53Z</time>
      </trkpt>
      <trkpt lat="48.70921" lon="7.32022">
        <ele>510.962402</ele>
        <time>2010-08-09T16:35:03Z</time>
      </trkpt>
      <trkpt lat="48.70932" lon="7.32039">
        <ele>512.15918</ele>
        <time>2010-08-09T16:35:10Z</time>
      </trkpt>
      <trkpt lat="48.70939" lon="7.32056">
        <ele>516.018555</ele>
        <time>2010-08-09T16:35:17Z</time>
      </trkpt>
      <trkpt lat="48.70949" lon="7.32073">
        <ele>521.112305</ele>
        <time>2010-08-09T16:35:24Z</time>
      </trkpt>
      <trkpt lat="48.70957" lon="7.32092">
        <ele>526.549805</ele>
        <time>2010-08-09T16:35:31Z</time>
      </trkpt>
      <trkpt lat="48.70965" lon="7.32109">
        <ele>532.72168</ele>
        <time>2010-08-09T16:35:38Z</time>
      </trkpt>
      <trkpt lat="48.70976" lon="7.32123">
        <ele>537.34668</ele>
        <time>2010-08-09T16:35:43Z</time>
      </trkpt>
      <trkpt lat="48.70985" lon="7.32138">
        <ele>540.62793</ele>
        <time>2010-08-09T16:35:48Z</time>
      </trkpt>
      <trkpt lat="48.70992" lon="7.32155">
        <ele>542.893555</ele>
        <time>2010-08-09T16:35:54Z</time>
      </trkpt>
      <trkpt lat="48.70998" lon="7.32177">
        <ele>544.831055</ele>
        <time>2010-08-09T16:36:00Z</time>
      </trkpt>
      <trkpt lat="48.71003" lon="7.32198">
        <ele>544.84668</ele>
        <time>2010-08-09T16:36:06Z</time>
      </trkpt>
      <trkpt lat="48.71006" lon="7.32218">
        <ele>545.56543</ele>
        <time>2010-08-09T16:36:12Z</time>
      </trkpt>
      <trkpt lat="48.71007" lon="7.3224">
        <ele>549.299805</ele>
        <time>2010-08-09T16:36:20Z</time>
      </trkpt>
      <trkpt lat="48.7101" lon="7.3226">
        <ele>547.50293</ele>
        <time>2010-08-09T16:36:29Z</time>
      </trkpt>
      <trkpt lat="48.71003" lon="7.32282">
        <ele>546.737305</ele>
        <time>2010-08-09T16:36:40Z</time>
      </trkpt>
      <trkpt lat="48.70995" lon="7.32299">
        <ele>546.00293</ele>
        <time>2010-08-09T16:36:49Z</time>
      </trkpt>
      <trkpt lat="48.70986" lon="7.32315">
        <ele>545.549805</ele>
        <time>2010-08-09T16:36:57Z</time>
      </trkpt>
      <trkpt lat="48.70977" lon="7.3233">
        <ele>545.299805</ele>
        <time>2010-08-09T16:37:08Z</time>
      </trkpt>
      <trkpt lat="48.70968" lon="7.32349">
        <ele>543.90918</ele>
        <time>2010-08-09T16:37:18Z</time>
      </trkpt>
      <trkpt lat="48.70956" lon="7.32362">
        <ele>542.22168</ele>
        <time>2010-08-09T16:37:25Z</time>
      </trkpt>
      <trkpt lat="48.70947" lon="7.32378">
        <ele>538.987305</ele>
        <time>2010-08-09T16:38:23Z</time>
      </trkpt>
      <trkpt lat="48.70935" lon="7.32385">
        <ele>532.581055</ele>
        <time>2010-08-09T16:39:30Z</time>
      </trkpt>
      <trkpt lat="48.70929" lon="7.32397">
        <ele>521.612305</ele>
        <time>2010-08-09T16:41:36Z</time>
      </trkpt>
      <trkpt lat="48.70923" lon="7.32379">
        <ele>519.581055</ele>
        <time>2010-08-09T16:42:18Z</time>
      </trkpt>
      <trkpt lat="48.70909" lon="7.3238">
        <ele>522.37793</ele>
        <time>2010-08-09T16:43:28Z</time>
      </trkpt>
      <trkpt lat="48.70897" lon="7.32391">
        <ele>523.674805</ele>
        <time>2010-08-09T16:43:45Z</time>
      </trkpt>
      <trkpt lat="48.70885" lon="7.32384">
        <ele>529.50293</ele>
        <time>2010-08-09T16:45:35Z</time>
      </trkpt>
      <trkpt lat="48.70874" lon="7.32393">
        <ele>536.237305</ele>
        <time>2010-08-09T16:46:44Z</time>
      </trkpt>
      <trkpt lat="48.70861" lon="7.32399">
        <ele>539.15918</ele>
        <time>2010-08-09T16:47:12Z</time>
      </trkpt>
      <trkpt lat="48.70849" lon="7.32407">
        <ele>540.03418</ele>
        <time>2010-08-09T16:47:25Z</time>
      </trkpt>
      <trkpt lat="48.70835" lon="7.32409">
        <ele>540.299805</ele>
        <time>2010-08-09T16:47:41Z</time>
      </trkpt>
      <trkpt lat="48.70821" lon="7.32405">
        <ele>541.53418</ele>
        <time>2010-08-09T16:47:57Z</time>
      </trkpt>
      <trkpt lat="48.7081" lon="7.3242">
        <ele>541.03418</ele>
        <time>2010-08-09T16:48:06Z</time>
      </trkpt>
      <trkpt lat="48.708" lon="7.32438">
        <ele>538.893555</ele>
        <time>2010-08-09T16:48:12Z</time>
      </trkpt>
      <trkpt lat="48.7079" lon="7.32456">
        <ele>538.393555</ele>
        <time>2010-08-09T16:48:18Z</time>
      </trkpt>
      <trkpt lat="48.70779" lon="7.3247">
        <ele>539.174805</ele>
        <time>2010-08-09T16:48:26Z</time>
      </trkpt>
      <trkpt lat="48.70766" lon="7.32482">
        <ele>537.37793</ele>
        <time>2010-08-09T16:48:32Z</time>
      </trkpt>
      <trkpt lat="48.70752" lon="7.3249">
        <ele>538.581055</ele>
        <time>2010-08-09T16:48:39Z</time>
      </trkpt>
      <trkpt lat="48.70739" lon="7.32493">
        <ele>537.00293</ele>
        <time>2010-08-09T16:48:44Z</time>
      </trkpt>
      <trkpt lat="48.70726" lon="7.325">
        <ele>537.706055</ele>
        <time>2010-08-09T16:48:52Z</time>
      </trkpt>
      <trkpt lat="48.70714" lon="7.32506">
        <ele>543.40918</ele>
        <time>2010-08-09T16:49:04Z</time>
      </trkpt>
      <trkpt lat="48.70701" lon="7.32512">
        <ele>546.28418</ele>
        <time>2010-08-09T16:49:15Z</time>
      </trkpt>
      <trkpt lat="48.70688" lon="7.32504">
        <ele>542.424805</ele>
        <time>2010-08-09T16:49:26Z</time>
      </trkpt>
      <trkpt lat="48.70678" lon="7.32489">
        <ele>543.56543</ele>
        <time>2010-08-09T16:49:38Z</time>
      </trkpt>
      <trkpt lat="48.70685" lon="7.32506">
        <ele>538.81543</ele>
        <time>2010-08-09T16:53:31Z</time>
      </trkpt>
      <trkpt lat="48.70695" lon="7.32522">
        <ele>535.893555</ele>
        <time>2010-08-09T16:53:37Z</time>
      </trkpt>
      <trkpt lat="48.707" lon="7.32541">
        <ele>533.956055</ele>
        <time>2010-08-09T16:53:45Z</time>
      </trkpt>
      <trkpt lat="48.70702" lon="7.32562">
        <ele>535.831055</ele>
        <time>2010-08-09T16:53:52Z</time>
      </trkpt>
      <trkpt lat="48.70705" lon="7.32582">
        <ele>537.393555</ele>
        <time>2010-08-09T16:54:23Z</time>
      </trkpt>
      <trkpt lat="48.7071" lon="7.32603">
        <ele>539.34668</ele>
        <time>2010-08-09T16:54:57Z</time>
      </trkpt>
      <trkpt lat="48.70725" lon="7.32603">
        <ele>539.424805</ele>
        <time>2010-08-09T16:55:05Z</time>
      </trkpt>
      <trkpt lat="48.70732" lon="7.32621">
        <ele>539.34668</ele>
        <time>2010-08-09T16:55:19Z</time>
      </trkpt>
      <trkpt lat="48.7073" lon="7.32643">
        <ele>539.59668</ele>
        <time>2010-08-09T16:55:27Z</time>
      </trkpt>
      <trkpt lat="48.70731" lon="7.32664">
        <ele>540.81543</ele>
        <time>2010-08-09T16:55:33Z</time>
      </trkpt>
      <trkpt lat="48.70736" lon="7.32683">
        <ele>541.956055</ele>
        <time>2010-08-09T16:55:39Z</time>
      </trkpt>
      <trkpt lat="48.70749" lon="7.32698">
        <ele>541.049805</ele>
        <time>2010-08-09T16:55:46Z</time>
      </trkpt>
      <trkpt lat="48.70753" lon="7.32718">
        <ele>537.612305</ele>
        <time>2010-08-09T16:55:57Z</time>
      </trkpt>
      <trkpt lat="48.70744" lon="7.32738">
        <ele>533.59668</ele>
        <time>2010-08-09T16:56:10Z</time>
      </trkpt>
      <trkpt lat="48.70735" lon="7.32752">
        <ele>528.31543</ele>
        <time>2010-08-09T16:56:17Z</time>
      </trkpt>
      <trkpt lat="48.70727" lon="7.32769">
        <ele>526.62793</ele>
        <time>2010-08-09T16:56:32Z</time>
      </trkpt>
      <trkpt lat="48.70745" lon="7.32776">
        <ele>524.15918</ele>
        <time>2010-08-09T16:56:50Z</time>
      </trkpt>
      <trkpt lat="48.70741" lon="7.32795">
        <ele>517.12793</ele>
        <time>2010-08-09T16:57:07Z</time>
      </trkpt>
      <trkpt lat="48.70752" lon="7.32807">
        <ele>515.081055</ele>
        <time>2010-08-09T16:57:25Z</time>
      </trkpt>
      <trkpt lat="48.70766" lon="7.32813">
        <ele>512.581055</ele>
        <time>2010-08-09T16:57:29Z</time>
      </trkpt>
      <trkpt lat="48.7078" lon="7.32821">
        <ele>510.118652</ele>
        <time>2010-08-09T16:57:33Z</time>
      </trkpt>
      <trkpt lat="48.70794" lon="7.32827">
        <ele>509.23584</ele>
        <time>2010-08-09T16:57:39Z</time>
      </trkpt>
      <trkpt lat="48.70809" lon="7.32825">
        <ele>509.243652</ele>
        <time>2010-08-09T16:57:46Z</time>
      </trkpt>
      <trkpt lat="48.70823" lon="7.32819">
        <ele>503.103027</ele>
        <time>2010-08-09T16:57:52Z</time>
      </trkpt>
      <trkpt lat="48.70835" lon="7.32815">
        <ele>496.095215</ele>
        <time>2010-08-09T16:58:17Z</time>
      </trkpt>
      <trkpt lat="48.70849" lon="7.32819">
        <ele>494.618652</ele>
        <time>2010-08-09T16:58:25Z</time>
      </trkpt>
      <trkpt lat="48.70866" lon="7.32828">
        <ele>491.79834</ele>
        <time>2010-08-09T16:58:30Z</time>
      </trkpt>
      <trkpt lat="48.70881" lon="7.32833">
        <ele>489.853027</ele>
        <time>2010-08-09T16:58:34Z</time>
      </trkpt>
      <trkpt lat="48.709" lon="7.32843">
        <ele>489.01709</ele>
        <time>2010-08-09T16:58:39Z</time>
      </trkpt>
      <trkpt lat="48.70915" lon="7.32853">
        <ele>488.54834</ele>
        <time>2010-08-09T16:58:42Z</time>
      </trkpt>
      <trkpt lat="48.70931" lon="7.32854">
        <ele>487.899902</ele>
        <time>2010-08-09T16:58:46Z</time>
      </trkpt>
      <trkpt lat="48.70948" lon="7.32861">
        <ele>481.712402</ele>
        <time>2010-08-09T16:58:49Z</time>
      </trkpt>
      <trkpt lat="48.70961" lon="7.32866">
        <ele>475.64209</ele>
        <time>2010-08-09T16:58:52Z</time>
      </trkpt>
      <trkpt lat="48.70976" lon="7.32871">
        <ele>466.337402</ele>
        <time>2010-08-09T16:58:56Z</time>
      </trkpt>
      <trkpt lat="48.70989" lon="7.3288">
        <ele>458.39209</ele>
        <time>2010-08-09T16:58:59Z</time>
      </trkpt>
      <trkpt lat="48.71001" lon="7.3289">
        <ele>454.11084</ele>
        <time>2010-08-09T16:59:02Z</time>
      </trkpt>
      <trkpt lat="48.71014" lon="7.32902">
        <ele>448.07959</ele>
        <time>2010-08-09T16:59:05Z</time>
      </trkpt>
      <trkpt lat="48.71029" lon="7.32921">
        <ele>445.23584</ele>
        <time>2010-08-09T16:59:08Z</time>
      </trkpt>
      <trkpt lat="48.71042" lon="7.32939">
        <ele>444.032715</ele>
        <time>2010-08-09T16:59:11Z</time>
      </trkpt>
      <trkpt lat="48.71057" lon="7.32959">
        <ele>442.220215</ele>
        <time>2010-08-09T16:59:14Z</time>
      </trkpt>
      <trkpt lat="48.71068" lon="7.32975">
        <ele>441.446777</ele>
        <time>2010-08-09T16:59:16Z</time>
      </trkpt>
      <trkpt lat="48.71077" lon="7.32993">
        <ele>440.126465</ele>
        <time>2010-08-09T16:59:18Z</time>
      </trkpt>
      <trkpt lat="48.71086" lon="7.33012">
        <ele>439.001465</ele>
        <time>2010-08-09T16:59:20Z</time>
      </trkpt>
      <trkpt lat="48.71096" lon="7.33031">
        <ele>437.76709</ele>
        <time>2010-08-09T16:59:22Z</time>
      </trkpt>
      <trkpt lat="48.71104" lon="7.3305">
        <ele>436.071777</ele>
        <time>2010-08-09T16:59:24Z</time>
      </trkpt>
      <trkpt lat="48.71113" lon="7.33067">
        <ele>435.313965</ele>
        <time>2010-08-09T16:59:26Z</time>
      </trkpt>
      <trkpt lat="48.71124" lon="7.33086">
        <ele>434.290527</ele>
        <time>2010-08-09T16:59:28Z</time>
      </trkpt>
      <trkpt lat="48.71133" lon="7.33103">
        <ele>433.751465</ele>
        <time>2010-08-09T16:59:30Z</time>
      </trkpt>
      <trkpt lat="48.71145" lon="7.33121">
        <ele>432.188965</ele>
        <time>2010-08-09T16:59:33Z</time>
      </trkpt>
      <trkpt lat="48.71157" lon="7.33142">
        <ele>431.79834</ele>
        <time>2010-08-09T16:59:36Z</time>
      </trkpt>
      <trkpt lat="48.71164" lon="7.33161">
        <ele>430.462402</ele>
        <time>2010-08-09T16:59:42Z</time>
      </trkpt>
      <trkpt lat="48.71177" lon="7.33169">
        <ele>427.837402</ele>
        <time>2010-08-09T16:59:49Z</time>
      </trkpt>
      <trkpt lat="48.7119" lon="7.33161">
        <ele>426.118652</ele>
        <time>2010-08-09T16:59:56Z</time>
      </trkpt>
      <trkpt lat="48.71204" lon="7.33158">
        <ele>424.48584</ele>
        <time>2010-08-09T17:00:06Z</time>
      </trkpt>
      <trkpt lat="48.71217" lon="7.33149">
        <ele>425.970215</ele>
        <time>2010-08-09T17:00:11Z</time>
      </trkpt>
      <trkpt lat="48.71228" lon="7.33135">
        <ele>427.931152</ele>
        <time>2010-08-09T17:00:16Z</time>
      </trkpt>
      <trkpt lat="48.71242" lon="7.33131">
        <ele>430.196777</ele>
        <time>2010-08-09T17:00:22Z</time>
      </trkpt>
      <trkpt lat="48.71256" lon="7.33133">
        <ele>431.978027</ele>
        <time>2010-08-09T17:00:28Z</time>
      </trkpt>
      <trkpt lat="48.7127" lon="7.33137">
        <ele>431.845215</ele>
        <time>2010-08-09T17:00:34Z</time>
      </trkpt>
      <trkpt lat="48.71285" lon="7.3314">
        <ele>434.501465</ele>
        <time>2010-08-09T17:00:41Z</time>
      </trkpt>
      <trkpt lat="48.71299" lon="7.33145">
        <ele>439.54834</ele>
        <time>2010-08-09T17:00:45Z</time>
      </trkpt>
      <trkpt lat="48.71314" lon="7.33142">
        <ele>441.032715</ele>
        <time>2010-08-09T17:00:52Z</time>
      </trkpt>
      <trkpt lat="48.71327" lon="7.33134">
        <ele>441.665527</ele>
        <time>2010-08-09T17:00:56Z</time>
      </trkpt>
      <trkpt lat="48.71341" lon="7.33125">
        <ele>443.353027</ele>
        <time>2010-08-09T17:01:00Z</time>
      </trkpt>
      <trkpt lat="48.71357" lon="7.33122">
        <ele>442.48584</ele>
        <time>2010-08-09T17:01:04Z</time>
      </trkpt>
      <trkpt lat="48.71373" lon="7.33119">
        <ele>442.618652</ele>
        <time>2010-08-09T17:01:08Z</time>
      </trkpt>
      <trkpt lat="48.71385" lon="7.33111">
        <ele>440.571777</ele>
        <time>2010-08-09T17:01:15Z</time>
      </trkpt>
      <trkpt lat="48.71399" lon="7.33117">
        <ele>442.665527</ele>
        <time>2010-08-09T17:01:22Z</time>
      </trkpt>
      <trkpt lat="48.71413" lon="7.33117">
        <ele>444.243652</ele>
        <time>2010-08-09T17:01:27Z</time>
      </trkpt>
      <trkpt lat="48.71429" lon="7.33119">
        <ele>445.509277</ele>
        <time>2010-08-09T17:01:33Z</time>
      </trkpt>
      <trkpt lat="48.71446" lon="7.33115">
        <ele>448.188965</ele>
        <time>2010-08-09T17:01:38Z</time>
      </trkpt>
      <trkpt lat="48.71462" lon="7.33118">
        <ele>446.728027</ele>
        <time>2010-08-09T17:01:42Z</time>
      </trkpt>
      <trkpt lat="48.71478" lon="7.33122">
        <ele>443.524902</ele>
        <time>2010-08-09T17:01:47Z</time>
      </trkpt>
      <trkpt lat="48.71493" lon="7.33127">
        <ele>445.337402</ele>
        <time>2010-08-09T17:01:50Z</time>
      </trkpt>
      <trkpt lat="48.71507" lon="7.33133">
        <ele>439.595215</ele>
        <time>2010-08-09T17:01:53Z</time>
      </trkpt>
      <trkpt lat="48.71523" lon="7.33139">
        <ele>441.157715</ele>
        <time>2010-08-09T17:01:56Z</time>
      </trkpt>
      <trkpt lat="48.71539" lon="7.33148">
        <ele>438.696777</ele>
        <time>2010-08-09T17:02:00Z</time>
      </trkpt>
      <trkpt lat="48.71557" lon="7.33157">
        <ele>436.04834</ele>
        <time>2010-08-09T17:02:04Z</time>
      </trkpt>
      <trkpt lat="48.71574" lon="7.33167">
        <ele>436.82959</ele>
        <time>2010-08-09T17:02:07Z</time>
      </trkpt>
      <trkpt lat="48.71595" lon="7.33178">
        <ele>436.243652</ele>
        <time>2010-08-09T17:02:10Z</time>
      </trkpt>
      <trkpt lat="48.71609" lon="7.33189">
        <ele>435.884277</ele>
        <time>2010-08-09T17:02:13Z</time>
      </trkpt>
      <trkpt lat="48.71624" lon="7.33197">
        <ele>435.759277</ele>
        <time>2010-08-09T17:02:16Z</time>
      </trkpt>
      <trkpt lat="48.71636" lon="7.33208">
        <ele>438.48584</ele>
        <time>2010-08-09T17:02:20Z</time>
      </trkpt>
      <trkpt lat="48.71647" lon="7.33219">
        <ele>445.42334</ele>
        <time>2010-08-09T17:02:24Z</time>
      </trkpt>
      <trkpt lat="48.71658" lon="7.3323">
        <ele>448.95459</ele>
        <time>2010-08-09T17:02:28Z</time>
      </trkpt>
      <trkpt lat="48.71672" lon="7.33227">
        <ele>450.743652</ele>
        <time>2010-08-09T17:02:32Z</time>
      </trkpt>
      <trkpt lat="48.71686" lon="7.33232">
        <ele>452.782715</ele>
        <time>2010-08-09T17:02:35Z</time>
      </trkpt>
      <trkpt lat="48.71698" lon="7.33241">
        <ele>454.845215</ele>
        <time>2010-08-09T17:02:38Z</time>
      </trkpt>
      <trkpt lat="48.71712" lon="7.33248">
        <ele>454.938965</ele>
        <time>2010-08-09T17:02:41Z</time>
      </trkpt>
      <trkpt lat="48.71728" lon="7.33252">
        <ele>452.61084</ele>
        <time>2010-08-09T17:02:45Z</time>
      </trkpt>
      <trkpt lat="48.7174" lon="7.33262">
        <ele>454.063965</ele>
        <time>2010-08-09T17:02:48Z</time>
      </trkpt>
      <trkpt lat="48.71752" lon="7.33276">
        <ele>450.54834</ele>
        <time>2010-08-09T17:02:51Z</time>
      </trkpt>
      <trkpt lat="48.71762" lon="7.3329">
        <ele>451.657715</ele>
        <time>2010-08-09T17:02:54Z</time>
      </trkpt>
      <trkpt lat="48.71772" lon="7.33305">
        <ele>451.009277</ele>
        <time>2010-08-09T17:02:57Z</time>
      </trkpt>
      <trkpt lat="48.71785" lon="7.33316">
        <ele>452.188965</ele>
        <time>2010-08-09T17:03:00Z</time>
      </trkpt>
      <trkpt lat="48.71798" lon="7.33323">
        <ele>452.92334</ele>
        <time>2010-08-09T17:03:03Z</time>
      </trkpt>
      <trkpt lat="48.71813" lon="7.33331">
        <ele>449.399902</ele>
        <time>2010-08-09T17:03:06Z</time>
      </trkpt>
      <trkpt lat="48.71824" lon="7.33348">
        <ele>450.087402</ele>
        <time>2010-08-09T17:03:10Z</time>
      </trkpt>
      <trkpt lat="48.71835" lon="7.33364">
        <ele>449.813965</ele>
        <time>2010-08-09T17:03:14Z</time>
      </trkpt>
      <trkpt lat="48.71849" lon="7.33374">
        <ele>450.743652</ele>
        <time>2010-08-09T17:03:16Z</time>
      </trkpt>
      <trkpt lat="48.71867" lon="7.33382">
        <ele>449.728027</ele>
        <time>2010-08-09T17:03:19Z</time>
      </trkpt>
      <trkpt lat="48.71883" lon="7.33393">
        <ele>450.399902</ele>
        <time>2010-08-09T17:03:23Z</time>
      </trkpt>
      <trkpt lat="48.71898" lon="7.334">
        <ele>455.188965</ele>
        <time>2010-08-09T17:03:28Z</time>
      </trkpt>
      <trkpt lat="48.71912" lon="7.33402">
        <ele>457.657715</ele>
        <time>2010-08-09T17:03:34Z</time>
      </trkpt>
      <trkpt lat="48.71928" lon="7.33407">
        <ele>458.98584</ele>
        <time>2010-08-09T17:03:39Z</time>
      </trkpt>
      <trkpt lat="48.71941" lon="7.33414">
        <ele>460.040527</ele>
        <time>2010-08-09T17:03:43Z</time>
      </trkpt>
      <trkpt lat="48.71954" lon="7.33414">
        <ele>455.657715</ele>
        <time>2010-08-09T17:03:45Z</time>
      </trkpt>
      <trkpt lat="48.71967" lon="7.33414">
        <ele>455.876465</ele>
        <time>2010-08-09T17:03:49Z</time>
      </trkpt>
      <trkpt lat="48.71981" lon="7.33426">
        <ele>456.29834</ele>
        <time>2010-08-09T17:03:53Z</time>
      </trkpt>
      <trkpt lat="48.71994" lon="7.33435">
        <ele>452.774902</ele>
        <time>2010-08-09T17:03:56Z</time>
      </trkpt>
      <trkpt lat="48.72009" lon="7.33443">
        <ele>450.14209</ele>
        <time>2010-08-09T17:04:00Z</time>
      </trkpt>
      <trkpt lat="48.72022" lon="7.33453">
        <ele>443.89209</ele>
        <time>2010-08-09T17:04:04Z</time>
      </trkpt>
      <trkpt lat="48.72032" lon="7.33469">
        <ele>441.196777</ele>
        <time>2010-08-09T17:04:08Z</time>
      </trkpt>
      <trkpt lat="48.72046" lon="7.33486">
        <ele>438.82959</ele>
        <time>2010-08-09T17:04:12Z</time>
      </trkpt>
      <trkpt lat="48.72057" lon="7.33503">
        <ele>438.071777</ele>
        <time>2010-08-09T17:04:17Z</time>
      </trkpt>
      <trkpt lat="48.72073" lon="7.33507">
        <ele>438.76709</ele>
        <time>2010-08-09T17:04:23Z</time>
      </trkpt>
      <trkpt lat="48.72086" lon="7.33512">
        <ele>435.32959</ele>
        <time>2010-08-09T17:04:28Z</time>
      </trkpt>
      <trkpt lat="48.72099" lon="7.3352">
        <ele>433.89209</ele>
        <time>2010-08-09T17:04:31Z</time>
      </trkpt>
      <trkpt lat="48.72115" lon="7.33533">
        <ele>431.563965</ele>
        <time>2010-08-09T17:04:36Z</time>
      </trkpt>
      <trkpt lat="48.72128" lon="7.33547">
        <ele>430.563965</ele>
        <time>2010-08-09T17:04:39Z</time>
      </trkpt>
      <trkpt lat="48.72139" lon="7.33561">
        <ele>428.970215</ele>
        <time>2010-08-09T17:04:42Z</time>
      </trkpt>
      <trkpt lat="48.72152" lon="7.33572">
        <ele>428.407715</ele>
        <time>2010-08-09T17:04:45Z</time>
      </trkpt>
      <trkpt lat="48.72163" lon="7.33584">
        <ele>427.978027</ele>
        <time>2010-08-09T17:04:48Z</time>
      </trkpt>
      <trkpt lat="48.72179" lon="7.33592">
        <ele>427.595215</ele>
        <time>2010-08-09T17:04:53Z</time>
      </trkpt>
      <trkpt lat="48.72193" lon="7.336">
        <ele>426.993652</ele>
        <time>2010-08-09T17:04:59Z</time>
      </trkpt>
      <trkpt lat="48.72206" lon="7.3361">
        <ele>426.790527</ele>
        <time>2010-08-09T17:05:06Z</time>
      </trkpt>
      <trkpt lat="48.72219" lon="7.33613">
        <ele>428.868652</ele>
        <time>2010-08-09T17:05:15Z</time>
      </trkpt>
      <trkpt lat="48.72235" lon="7.33618">
        <ele>430.665527</ele>
        <time>2010-08-09T17:05:26Z</time>
      </trkpt>
      <trkpt lat="48.72246" lon="7.3362">
        <ele>438.688965</ele>
        <time>2010-08-09T17:05:40Z</time>
      </trkpt>
      <trkpt lat="48.72258" lon="7.33631">
        <ele>442.103027</ele>
        <time>2010-08-09T17:05:50Z</time>
      </trkpt>
      <trkpt lat="48.72269" lon="7.33645">
        <ele>442.845215</ele>
        <time>2010-08-09T17:06:15Z</time>
      </trkpt>
      <trkpt lat="48.72283" lon="7.3365">
        <ele>445.688965</ele>
        <time>2010-08-09T17:06:22Z</time>
      </trkpt>
      <trkpt lat="48.72297" lon="7.3365">
        <ele>448.368652</ele>
        <time>2010-08-09T17:06:27Z</time>
      </trkpt>
      <trkpt lat="48.72309" lon="7.33668">
        <ele>448.76709</ele>
        <time>2010-08-09T17:06:31Z</time>
      </trkpt>
      <trkpt lat="48.72322" lon="7.33679">
        <ele>449.04834</ele>
        <time>2010-08-09T17:06:34Z</time>
      </trkpt>
      <trkpt lat="48.72335" lon="7.33693">
        <ele>447.188965</ele>
        <time>2010-08-09T17:06:37Z</time>
      </trkpt>
      <trkpt lat="48.72346" lon="7.33705">
        <ele>446.251465</ele>
        <time>2010-08-09T17:06:41Z</time>
      </trkpt>
      <trkpt lat="48.72358" lon="7.3369">
        <ele>444.751465</ele>
        <time>2010-08-09T17:06:47Z</time>
      </trkpt>
      <trkpt lat="48.72366" lon="7.33672">
        <ele>445.45459</ele>
        <time>2010-08-09T17:06:51Z</time>
      </trkpt>
      <trkpt lat="48.72381" lon="7.33671">
        <ele>442.720215</ele>
        <time>2010-08-09T17:07:18Z</time>
      </trkpt>
      <trkpt lat="48.72398" lon="7.33682">
        <ele>442.720215</ele>
        <time>2010-08-09T17:07:21Z</time>
      </trkpt>
      <trkpt lat="48.7241" lon="7.33689">
        <ele>442.970215</ele>
        <time>2010-08-09T17:07:24Z</time>
      </trkpt>
      <trkpt lat="48.72426" lon="7.33699">
        <ele>443.20459</ele>
        <time>2010-08-09T17:07:29Z</time>
      </trkpt>
      <trkpt lat="48.72442" lon="7.33704">
        <ele>444.071777</ele>
        <time>2010-08-09T17:07:33Z</time>
      </trkpt>
      <trkpt lat="48.7246" lon="7.33711">
        <ele>445.306152</ele>
        <time>2010-08-09T17:07:36Z</time>
      </trkpt>
      <trkpt lat="48.72474" lon="7.33721">
        <ele>447.032715</ele>
        <time>2010-08-09T17:07:39Z</time>
      </trkpt>
      <trkpt lat="48.72487" lon="7.33734">
        <ele>448.759277</ele>
        <time>2010-08-09T17:07:42Z</time>
      </trkpt>
      <trkpt lat="48.72501" lon="7.33744">
        <ele>448.313965</ele>
        <time>2010-08-09T17:07:44Z</time>
      </trkpt>
      <trkpt lat="48.72516" lon="7.33759">
        <ele>447.696777</ele>
        <time>2010-08-09T17:07:51Z</time>
      </trkpt>
      <trkpt lat="48.7253" lon="7.33772">
        <ele>446.696777</ele>
        <time>2010-08-09T17:07:57Z</time>
      </trkpt>
      <trkpt lat="48.72539" lon="7.33787">
        <ele>442.720215</ele>
        <time>2010-08-09T17:08:00Z</time>
      </trkpt>
      <trkpt lat="48.72549" lon="7.33804">
        <ele>442.29834</ele>
        <time>2010-08-09T17:08:03Z</time>
      </trkpt>
      <trkpt lat="48.72561" lon="7.33819">
        <ele>441.376465</ele>
        <time>2010-08-09T17:08:06Z</time>
      </trkpt>
      <trkpt lat="48.72577" lon="7.33839">
        <ele>441.688965</ele>
        <time>2010-08-09T17:08:09Z</time>
      </trkpt>
      <trkpt lat="48.72585" lon="7.3386">
        <ele>440.938965</ele>
        <time>2010-08-09T17:08:11Z</time>
      </trkpt>
      <trkpt lat="48.72598" lon="7.33879">
        <ele>439.712402</ele>
        <time>2010-08-09T17:08:13Z</time>
      </trkpt>
      <trkpt lat="48.72605" lon="7.33901">
        <ele>439.962402</ele>
        <time>2010-08-09T17:08:15Z</time>
      </trkpt>
      <trkpt lat="48.72615" lon="7.33923">
        <ele>437.868652</ele>
        <time>2010-08-09T17:08:18Z</time>
      </trkpt>
      <trkpt lat="48.72634" lon="7.33937">
        <ele>433.501465</ele>
        <time>2010-08-09T17:08:22Z</time>
      </trkpt>
      <trkpt lat="48.72649" lon="7.33946">
        <ele>431.415527</ele>
        <time>2010-08-09T17:08:25Z</time>
      </trkpt>
      <trkpt lat="48.72661" lon="7.33962">
        <ele>425.376465</ele>
        <time>2010-08-09T17:08:31Z</time>
      </trkpt>
      <trkpt lat="48.72675" lon="7.33975">
        <ele>418.813965</ele>
        <time>2010-08-09T17:08:35Z</time>
      </trkpt>
      <trkpt lat="48.72682" lon="7.33994">
        <ele>417.853027</ele>
        <time>2010-08-09T17:08:37Z</time>
      </trkpt>
      <trkpt lat="48.72689" lon="7.34013">
        <ele>416.712402</ele>
        <time>2010-08-09T17:08:39Z</time>
      </trkpt>
      <trkpt lat="48.72697" lon="7.34038">
        <ele>413.009277</ele>
        <time>2010-08-09T17:08:42Z</time>
      </trkpt>
      <trkpt lat="48.72708" lon="7.34063">
        <ele>411.759277</ele>
        <time>2010-08-09T17:08:45Z</time>
      </trkpt>
      <trkpt lat="48.72718" lon="7.3408">
        <ele>409.618652</ele>
        <time>2010-08-09T17:08:47Z</time>
      </trkpt>
      <trkpt lat="48.72729" lon="7.34102">
        <ele>407.259277</ele>
        <time>2010-08-09T17:08:50Z</time>
      </trkpt>
      <trkpt lat="48.7274" lon="7.34121">
        <ele>401.782715</ele>
        <time>2010-08-09T17:08:53Z</time>
      </trkpt>
      <trkpt lat="48.72751" lon="7.34134">
        <ele>396.70459</ele>
        <time>2010-08-09T17:08:56Z</time>
      </trkpt>
      <trkpt lat="48.72762" lon="7.34149">
        <ele>393.790527</ele>
        <time>2010-08-09T17:08:59Z</time>
      </trkpt>
      <trkpt lat="48.72775" lon="7.34165">
        <ele>390.345215</ele>
        <time>2010-08-09T17:09:03Z</time>
      </trkpt>
      <trkpt lat="48.72785" lon="7.34181">
        <ele>385.345215</ele>
        <time>2010-08-09T17:09:06Z</time>
      </trkpt>
      <trkpt lat="48.72798" lon="7.34201">
        <ele>382.274902</ele>
        <time>2010-08-09T17:09:09Z</time>
      </trkpt>
      <trkpt lat="48.72809" lon="7.34215">
        <ele>380.478027</ele>
        <time>2010-08-09T17:09:11Z</time>
      </trkpt>
      <trkpt lat="48.72818" lon="7.34231">
        <ele>378.157715</ele>
        <time>2010-08-09T17:09:14Z</time>
      </trkpt>
      <trkpt lat="48.72828" lon="7.34245">
        <ele>375.024902</ele>
        <time>2010-08-09T17:09:18Z</time>
      </trkpt>
      <trkpt lat="48.72841" lon="7.34259">
        <ele>371.26709</ele>
        <time>2010-08-09T17:09:22Z</time>
      </trkpt>
      <trkpt lat="48.72851" lon="7.34275">
        <ele>368.23584</ele>
        <time>2010-08-09T17:09:25Z</time>
      </trkpt>
      <trkpt lat="48.72865" lon="7.34286">
        <ele>360.86084</ele>
        <time>2010-08-09T17:09:28Z</time>
      </trkpt>
      <trkpt lat="48.7288" lon="7.34296">
        <ele>357.29834</ele>
        <time>2010-08-09T17:09:31Z</time>
      </trkpt>
      <trkpt lat="48.72894" lon="7.34309">
        <ele>354.36084</ele>
        <time>2010-08-09T17:09:34Z</time>
      </trkpt>
      <trkpt lat="48.72907" lon="7.34328">
        <ele>351.54834</ele>
        <time>2010-08-09T17:09:38Z</time>
      </trkpt>
      <trkpt lat="48.72923" lon="7.34342">
        <ele>349.57959</ele>
        <time>2010-08-09T17:09:41Z</time>
      </trkpt>
      <trkpt lat="48.72935" lon="7.34351">
        <ele>347.48584</ele>
        <time>2010-08-09T17:09:45Z</time>
      </trkpt>
      <trkpt lat="48.7295" lon="7.34366">
        <ele>343.438965</ele>
        <time>2010-08-09T17:09:50Z</time>
      </trkpt>
      <trkpt lat="48.72963" lon="7.34378">
        <ele>341.86084</ele>
        <time>2010-08-09T17:09:54Z</time>
      </trkpt>
      <trkpt lat="48.72976" lon="7.34387">
        <ele>341.001465</ele>
        <time>2010-08-09T17:09:57Z</time>
      </trkpt>
      <trkpt lat="48.72994" lon="7.34398">
        <ele>339.696777</ele>
        <time>2010-08-09T17:10:00Z</time>
      </trkpt>
      <trkpt lat="48.7301" lon="7.34414">
        <ele>338.290527</ele>
        <time>2010-08-09T17:10:03Z</time>
      </trkpt>
      <trkpt lat="48.73021" lon="7.34428">
        <ele>337.032715</ele>
        <time>2010-08-09T17:10:05Z</time>
      </trkpt>
      <trkpt lat="48.73032" lon="7.34442">
        <ele>335.962402</ele>
        <time>2010-08-09T17:10:07Z</time>
      </trkpt>
      <trkpt lat="48.73044" lon="7.34456">
        <ele>335.42334</ele>
        <time>2010-08-09T17:10:09Z</time>
      </trkpt>
      <trkpt lat="48.73063" lon="7.34468">
        <ele>333.368652</ele>
        <time>2010-08-09T17:10:12Z</time>
      </trkpt>
      <trkpt lat="48.73077" lon="7.34473">
        <ele>328.024902</ele>
        <time>2010-08-09T17:10:14Z</time>
      </trkpt>
      <trkpt lat="48.73093" lon="7.34485">
        <ele>322.274902</ele>
        <time>2010-08-09T17:10:17Z</time>
      </trkpt>
      <trkpt lat="48.73103" lon="7.34498">
        <ele>319.20459</ele>
        <time>2010-08-09T17:10:21Z</time>
      </trkpt>
      <trkpt lat="48.73118" lon="7.3451">
        <ele>317.040527</ele>
        <time>2010-08-09T17:10:25Z</time>
      </trkpt>
      <trkpt lat="48.73131" lon="7.34524">
        <ele>316.681152</ele>
        <time>2010-08-09T17:10:28Z</time>
      </trkpt>
      <trkpt lat="48.73143" lon="7.34538">
        <ele>314.36084</ele>
        <time>2010-08-09T17:10:32Z</time>
      </trkpt>
      <trkpt lat="48.73152" lon="7.34559">
        <ele>310.45459</ele>
        <time>2010-08-09T17:10:37Z</time>
      </trkpt>
      <trkpt lat="48.73162" lon="7.34575">
        <ele>309.001465</ele>
        <time>2010-08-09T17:10:46Z</time>
      </trkpt>
      <trkpt lat="48.73176" lon="7.34593">
        <ele>307.978027</ele>
        <time>2010-08-09T17:10:51Z</time>
      </trkpt>
      <trkpt lat="48.73188" lon="7.34605">
        <ele>307.45459</ele>
        <time>2010-08-09T17:10:54Z</time>
      </trkpt>
      <trkpt lat="48.73203" lon="7.34618">
        <ele>305.899902</ele>
        <time>2010-08-09T17:10:59Z</time>
      </trkpt>
      <trkpt lat="48.73213" lon="7.34631">
        <ele>305.32959</ele>
        <time>2010-08-09T17:11:05Z</time>
      </trkpt>
      <trkpt lat="48.73229" lon="7.34642">
        <ele>304.884277</ele>
        <time>2010-08-09T17:11:10Z</time>
      </trkpt>
      <trkpt lat="48.73245" lon="7.34653">
        <ele>303.743652</ele>
        <time>2010-08-09T17:11:14Z</time>
      </trkpt>
      <trkpt lat="48.73258" lon="7.34669">
        <ele>301.907715</ele>
        <time>2010-08-09T17:11:17Z</time>
      </trkpt>
      <trkpt lat="48.73274" lon="7.34685">
        <ele>299.759277</ele>
        <time>2010-08-09T17:11:20Z</time>
      </trkpt>
      <trkpt lat="48.73287" lon="7.34705">
        <ele>297.626465</ele>
        <time>2010-08-09T17:11:23Z</time>
      </trkpt>
      <trkpt lat="48.73299" lon="7.3472">
        <ele>296.07959</ele>
        <time>2010-08-09T17:11:26Z</time>
      </trkpt>
      <trkpt lat="48.73306" lon="7.34739">
        <ele>292.76709</ele>
        <time>2010-08-09T17:11:32Z</time>
      </trkpt>
      <trkpt lat="48.7332" lon="7.34739">
        <ele>292.103027</ele>
        <time>2010-08-09T17:15:04Z</time>
      </trkpt>
      <trkpt lat="48.7331" lon="7.34754">
        <ele>295.23584</ele>
        <time>2010-08-09T17:16:40Z</time>
      </trkpt>
      <trkpt lat="48.73324" lon="7.34758">
        <ele>294.087402</ele>
        <time>2010-08-09T17:17:24Z</time>
      </trkpt>
      <trkpt lat="48.73337" lon="7.34768">
        <ele>289.188965</ele>
        <time>2010-08-09T17:17:31Z</time>
      </trkpt>
      <trkpt lat="48.73351" lon="7.34778">
        <ele>286.76709</ele>
        <time>2010-08-09T17:17:36Z</time>
      </trkpt>
    </trkseg>
  </trk>
</gpx>